Observation data for Colorado City on 03/05/2021      Previous  Date  Next       Current Mesonet Observations  Soil Data  Daily Summary Page  Observations in Plain Language
KCO2 050600Z 30006KT 13/M08 A2996 RMK A01 T01301084  RH  022%=      5-min Rain = 0
KCO2 050601Z 30005KT 13/M08 A2996 RMK A01 T01301083  RH  022%=      5-min Rain = 0
KCO2 050602Z 30005KT 13/M08 A2996 RMK A01 T01301082  RH  022%=      5-min Rain = 0
KCO2 050603Z 30006KT 13/M08 A2996 RMK A01 T01291082  RH  022%=      5-min Rain = 0
KCO2 050604Z 30006KT 13/M08 A2996 RMK A01 T01291082  RH  022%=      5-min Rain = 0
KCO2 050605Z 30005KT 13/M08 A2996 RMK A01 T01281082  RH  022%=      5-min Rain = 0
KCO2 050606Z 31004KT 13/M08 A2996 RMK A01 T01271082  RH  022%=      5-min Rain = 0
KCO2 050607Z 31004KT 13/M08 A2996 RMK A01 T01261082  RH  023%=      5-min Rain = 0
KCO2 050608Z 31005KT 13/M08 A2996 RMK A01 T01261081  RH  023%=      5-min Rain = 0
KCO2 050609Z 31005KT 13/M08 A2996 RMK A01 T01261080  RH  023%=      5-min Rain = 0
KCO2 050610Z 30005KT 13/M08 A2996 RMK A01 T01291079  RH  023%=      5-min Rain = 0
KCO2 050611Z 30006KT 13/M08 A2996 RMK A01 T01291080  RH  023%=      5-min Rain = 0
KCO2 050612Z 30005KT 13/M08 A2996 RMK A01 T01291078  RH  023%=      5-min Rain = 0
KCO2 050613Z 30005KT 13/M08 A2996 RMK A01 T01291078  RH  023%=      5-min Rain = 0
KCO2 050614Z 30005KT 13/M08 A2996 RMK A01 T01281078  RH  023%=      5-min Rain = 0
KCO2 050615Z 29005KT 13/M08 A2996 RMK A01 T01261079  RH  023%=      5-min Rain = 0
KCO2 050616Z 30005KT 12/M08 A2996 RMK A01 T01241079  RH  023%=      5-min Rain = 0
KCO2 050617Z 30004KT 12/M08 A2996 RMK A01 T01231078  RH  024%=      5-min Rain = 0
KCO2 050618Z 29004KT 12/M08 A2996 RMK A01 T01211078  RH  024%=      5-min Rain = 0
KCO2 050619Z 29005KT 12/M08 A2996 RMK A01 T01201077  RH  024%=      5-min Rain = 0
KCO2 050620Z 29004KT 12/M08 A2996 RMK A01 T01201077  RH  024%=      5-min Rain = 0
KCO2 050621Z 29004KT 12/M08 A2996 RMK A01 T01201077  RH  025%=      5-min Rain = 0
KCO2 050622Z 28004KT 12/M08 A2996 RMK A01 T01191077  RH  025%=      5-min Rain = 0
KCO2 050623Z 28004KT 12/M08 A2996 RMK A01 T01191076  RH  025%=      5-min Rain = 0
KCO2 050624Z 28004KT 12/M08 A2996 RMK A01 T01191076  RH  025%=      5-min Rain = 0
KCO2 050625Z 28004KT 12/M08 A2996 RMK A01 T01211076  RH  025%=      5-min Rain = 0
KCO2 050626Z 28004KT 12/M08 A2996 RMK A01 T01211076  RH  025%=      5-min Rain = 0
KCO2 050627Z 28004KT 12/M08 A2996 RMK A01 T01211076  RH  024%=      5-min Rain = 0
KCO2 050628Z 28003KT 12/M08 A2996 RMK A01 T01221076  RH  024%=      5-min Rain = 0
KCO2 050629Z 27003KT 12/M08 A2996 RMK A01 T01231076  RH  024%=      5-min Rain = 0
KCO2 050630Z 27004KT 12/M08 A2996 RMK A01 T01241075  RH  024%=      5-min Rain = 0
KCO2 050631Z 27004KT 13/M07 A2996 RMK A01 T01251074  RH  024%=      5-min Rain = 0
KCO2 050632Z 27004KT 13/M08 A2996 RMK A01 T01261075  RH  024%=      5-min Rain = 0
KCO2 050633Z 27004KT 13/M08 A2996 RMK A01 T01271075  RH  024%=      5-min Rain = 0
KCO2 050634Z 27004KT 13/M07 A2996 RMK A01 T01281074  RH  024%=      5-min Rain = 0
KCO2 050635Z 26004KT 13/M07 A2996 RMK A01 T01281074  RH  024%=      5-min Rain = 0
KCO2 050636Z 26004KT 13/M07 A2996 RMK A01 T01291074  RH  024%=      5-min Rain = 0
KCO2 050637Z 26004KT 13/M07 A2996 RMK A01 T01301074  RH  024%=      5-min Rain = 0
KCO2 050638Z 25003KT 13/M07 A2996 RMK A01 T01301074  RH  023%=      5-min Rain = 0
KCO2 050639Z 25003KT 13/M07 A2996 RMK A01 T01301074  RH  023%=      5-min Rain = 0
KCO2 050640Z 25004KT 13/M07 A2996 RMK A01 T01301074  RH  023%=      5-min Rain = 0
KCO2 050641Z 26004KT 13/M07 A2996 RMK A01 T01291074  RH  024%=      5-min Rain = 0
KCO2 050642Z 26004KT 13/M07 A2996 RMK A01 T01281073  RH  024%=      5-min Rain = 0
KCO2 050643Z 27004KT 13/M07 A2996 RMK A01 T01271073  RH  024%=      5-min Rain = 0
KCO2 050644Z 26004KT 13/M07 A2996 RMK A01 T01261072  RH  024%=      5-min Rain = 0
KCO2 050645Z 26003KT 13/M07 A2996 RMK A01 T01251072  RH  025%=      5-min Rain = 0
KCO2 050646Z 25003KT 13/M07 A2996 RMK A01 T01261071  RH  025%=      5-min Rain = 0
KCO2 050647Z 25003KT 13/M07 A2996 RMK A01 T01271071  RH  024%=      5-min Rain = 0
KCO2 050648Z 25004KT 13/M07 A2996 RMK A01 T01281071  RH  024%=      5-min Rain = 0
KCO2 050649Z 25004KT 13/M07 A2996 RMK A01 T01281071  RH  024%=      5-min Rain = 0
KCO2 050650Z 25004KT 13/M07 A2996 RMK A01 T01261071  RH  025%=      5-min Rain = 0
KCO2 050651Z 25003KT 13/M07 A2996 RMK A01 T01251071  RH  025%=      5-min Rain = 0
KCO2 050652Z 25003KT 13/M07 A2996 RMK A01 T01261071  RH  025%=      5-min Rain = 0
KCO2 050653Z 25003KT 13/M07 A2996 RMK A01 T01251070  RH  025%=      5-min Rain = 0
KCO2 050654Z 26003KT 12/M07 A2996 RMK A01 T01241071  RH  025%=      5-min Rain = 0
KCO2 050655Z 25004KT 12/M07 A2996 RMK A01 T01241070  RH  025%=      5-min Rain = 0
KCO2 050656Z 26004KT 12/M07 A2996 RMK A01 T01241070  RH  025%=      5-min Rain = 0
KCO2 050657Z 26004KT 12/M07 A2996 RMK A01 T01221070  RH  025%=      5-min Rain = 0
KCO2 050658Z 26004KT 12/M07 A2996 RMK A01 T01211070  RH  026%=      5-min Rain = 0
KCO2 050659Z 26004KT 12/M07 A2996 RMK A01 T01211070  RH  026%=      5-min Rain = 0
KCO2 050700Z 26003KT 12/M07 A2996 RMK A01 T01191071  RH  026%=      5-min Rain = 0
KCO2 050701Z 27003KT 12/M07 A2996 RMK A01 T01171071  RH  026%=      5-min Rain = 0
KCO2 050702Z 27003KT 12/M07 A2996 RMK A01 T01171071  RH  026%=      5-min Rain = 0
KCO2 050703Z 27003KT 12/M07 A2996 RMK A01 T01161070  RH  026%=      5-min Rain = 0
KCO2 050704Z 27003KT 12/M07 A2996 RMK A01 T01171069  RH  026%=      5-min Rain = 0
KCO2 050705Z 27004KT 12/M07 A2996 RMK A01 T01191069  RH  026%=      5-min Rain = 0
KCO2 050706Z 27004KT 12/M07 A2996 RMK A01 T01191069  RH  026%=      5-min Rain = 0
KCO2 050707Z 27003KT 12/M07 A2996 RMK A01 T01191070  RH  026%=      5-min Rain = 0
KCO2 050708Z 27004KT 12/M07 A2996 RMK A01 T01191069  RH  026%=      5-min Rain = 0
KCO2 050709Z 27004KT 12/M07 A2996 RMK A01 T01191069  RH  026%=      5-min Rain = 0
KCO2 050710Z 27004KT 12/M07 A2996 RMK A01 T01181070  RH  026%=      5-min Rain = 0
KCO2 050711Z 27003KT 12/M07 A2996 RMK A01 T01181069  RH  026%=      5-min Rain = 0
KCO2 050712Z 27003KT 12/M07 A2996 RMK A01 T01171069  RH  027%=      5-min Rain = 0
KCO2 050713Z 26004KT 12/M07 A2996 RMK A01 T01161069  RH  027%=      5-min Rain = 0
KCO2 050714Z 27004KT 12/M07 A2996 RMK A01 T01151070  RH  027%=      5-min Rain = 0
KCO2 050715Z 28003KT 11/M07 A2996 RMK A01 T01131070  RH  027%=      5-min Rain = 0
KCO2 050716Z 28003KT 11/M07 A2996 RMK A01 T01101070  RH  028%=      5-min Rain = 0
KCO2 050717Z 28003KT 11/M07 A2996 RMK A01 T01091069  RH  028%=      5-min Rain = 0
KCO2 050718Z 28003KT 11/M07 A2996 RMK A01 T01091067  RH  028%=      5-min Rain = 0
KCO2 050719Z 26003KT 11/M07 A2996 RMK A01 T01091067  RH  028%=      5-min Rain = 0
KCO2 050720Z 26004KT 11/M07 A2996 RMK A01 T01091067  RH  028%=      5-min Rain = 0
KCO2 050721Z 26004KT 11/M07 A2996 RMK A01 T01091067  RH  028%=      5-min Rain = 0
KCO2 050722Z 27003KT 11/M07 A2996 RMK A01 T01081068  RH  028%=      5-min Rain = 0
KCO2 050723Z 27003KT 11/M07 A2996 RMK A01 T01061068  RH  029%=      5-min Rain = 0
KCO2 050724Z 26003KT 11/M07 A2996 RMK A01 T01051068  RH  029%=      5-min Rain = 0
KCO2 050725Z 26002KT 10/M07 A2996 RMK A01 T01031067  RH  029%=      5-min Rain = 0
KCO2 050726Z 24002KT 10/M07 A2996 RMK A01 T01031067  RH  030%=      5-min Rain = 0
KCO2 050727Z 23003KT 10/M07 A2996 RMK A01 T01011068  RH  030%=      5-min Rain = 0
KCO2 050728Z 23003KT 10/M07 A2996 RMK A01 T00991068  RH  030%=      5-min Rain = 0
KCO2 050729Z 22003KT 10/M07 A2996 RMK A01 T00971068  RH  031%=      5-min Rain = 0
KCO2 050730Z 23004KT 10/M07 A2996 RMK A01 T00951068  RH  031%=      5-min Rain = 0
KCO2 050731Z 21004KT 10/M07 A2996 RMK A01 T00951068  RH  031%=      5-min Rain = 0
KCO2 050732Z 20004KT 10/M07 A2996 RMK A01 T00991069  RH  030%=      5-min Rain = 0
KCO2 050733Z 21005KT 10/M07 A2996 RMK A01 T01021069  RH  029%=      5-min Rain = 0
KCO2 050734Z 21005KT 10/M07 A2996 RMK A01 T01041070  RH  029%=      5-min Rain = 0
KCO2 050735Z 21005KT 10/M07 A2996 RMK A01 T01041070  RH  029%=      5-min Rain = 0
KCO2 050736Z 21005KT 10/M07 A2996 RMK A01 T01011071  RH  029%=      5-min Rain = 0
KCO2 050737Z 21005KT 10/M07 A2996 RMK A01 T00981071  RH  030%=      5-min Rain = 0
KCO2 050738Z 21005KT 10/M07 A2996 RMK A01 T00971071  RH  030%=      5-min Rain = 0
KCO2 050739Z 21005KT 10/M07 A2996 RMK A01 T00951072  RH  030%=      5-min Rain = 0
KCO2 050740Z 21005KT 09/M07 A2996 RMK A01 T00931072  RH  030%=      5-min Rain = 0
KCO2 050741Z 21005KT 09/M07 A2996 RMK A01 T00921072  RH  031%=      5-min Rain = 0
KCO2 050742Z 21006KT 09/M07 A2996 RMK A01 T00901072  RH  031%=      5-min Rain = 0
KCO2 050743Z 21006KT 09/M07 A2996 RMK A01 T00871073  RH  032%=      5-min Rain = 0
KCO2 050744Z 22006KT 09/M07 A2996 RMK A01 T00861072  RH  032%=      5-min Rain = 0
KCO2 050745Z 21006KT 09/M07 A2996 RMK A01 T00861072  RH  032%=      5-min Rain = 0
KCO2 050746Z 22006KT 09/M07 A2996 RMK A01 T00861072  RH  032%=      5-min Rain = 0
KCO2 050747Z 22006KT 09/M07 A2996 RMK A01 T00851072  RH  032%=      5-min Rain = 0
KCO2 050748Z 22005KT 09/M07 A2996 RMK A01 T00851072  RH  032%=      5-min Rain = 0
KCO2 050749Z 23005KT 09/M07 A2996 RMK A01 T00861071  RH  032%=      5-min Rain = 0
KCO2 050750Z 23005KT 09/M07 A2996 RMK A01 T00861071  RH  032%=      5-min Rain = 0
KCO2 050751Z 23005KT 09/M07 A2996 RMK A01 T00861071  RH  032%=      5-min Rain = 0
KCO2 050752Z 23005KT 08/M07 A2996 RMK A01 T00841071  RH  033%=      5-min Rain = 0
KCO2 050753Z 23005KT 09/M07 A2996 RMK A01 T00851070  RH  033%=      5-min Rain = 0
KCO2 050754Z 23006KT 09/M07 A2996 RMK A01 T00851070  RH  033%=      5-min Rain = 0
KCO2 050755Z 23006KT 09/M07 A2996 RMK A01 T00861069  RH  033%=      5-min Rain = 0
KCO2 050756Z 23006KT 09/M07 A2996 RMK A01 T00871069  RH  033%=      5-min Rain = 0
KCO2 050757Z 24006KT 09/M07 A2996 RMK A01 T00871069  RH  032%=      5-min Rain = 0
KCO2 050758Z 23006KT 09/M07 A2996 RMK A01 T00881068  RH  032%=      5-min Rain = 0
KCO2 050759Z 24006KT 09/M07 A2996 RMK A01 T00891068  RH  032%=      5-min Rain = 0
KCO2 050800Z 24006KT 09/M07 A2996 RMK A01 T00901068  RH  032%=      5-min Rain = 0
KCO2 050801Z 23006KT 09/M07 A2996 RMK A01 T00901068  RH  032%=      5-min Rain = 0
KCO2 050802Z 24006KT 09/M07 A2996 RMK A01 T00911068  RH  032%=      5-min Rain = 0
KCO2 050803Z 24006KT 09/M07 A2996 RMK A01 T00901068  RH  032%=      5-min Rain = 0
KCO2 050804Z 24006KT 09/M07 A2996 RMK A01 T00901068  RH  032%=      5-min Rain = 0
KCO2 050805Z 24006KT 09/M07 A2996 RMK A01 T00911067  RH  032%=      5-min Rain = 0
KCO2 050806Z 24006KT 09/M07 A2996 RMK A01 T00911067  RH  032%=      5-min Rain = 0
KCO2 050807Z 24005KT 09/M07 A2996 RMK A01 T00911066  RH  032%=      5-min Rain = 0
KCO2 050808Z 24005KT 09/M07 A2996 RMK A01 T00921066  RH  032%=      5-min Rain = 0
KCO2 050809Z 24005KT 09/M07 A2996 RMK A01 T00921065  RH  032%=      5-min Rain = 0
KCO2 050810Z 24005KT 09/M07 A2996 RMK A01 T00931065  RH  032%=      5-min Rain = 0
KCO2 050811Z 25005KT 09/M07 A2996 RMK A01 T00941065  RH  032%=      5-min Rain = 0
KCO2 050812Z 25005KT 10/M07 A2996 RMK A01 T00951065  RH  032%=      5-min Rain = 0
KCO2 050813Z 25005KT 09/M07 A2996 RMK A01 T00941065  RH  032%=      5-min Rain = 0
KCO2 050814Z 26005KT 09/M07 A2996 RMK A01 T00941065  RH  032%=      5-min Rain = 0
KCO2 050815Z 26005KT 09/M07 A2996 RMK A01 T00941065  RH  032%=      5-min Rain = 0
KCO2 050816Z 26004KT 10/M07 A2996 RMK A01 T00951065  RH  032%=      5-min Rain = 0
KCO2 050817Z 26004KT 10/M06 A2996 RMK A01 T00961064  RH  032%=      5-min Rain = 0
KCO2 050818Z 26004KT 10/M07 A2996 RMK A01 T00951065  RH  032%=      5-min Rain = 0
KCO2 050819Z 26004KT 09/M07 A2996 RMK A01 T00941065  RH  032%=      5-min Rain = 0
KCO2 050820Z 26004KT 09/M07 A2996 RMK A01 T00941065  RH  032%=      5-min Rain = 0
KCO2 050821Z 26004KT 09/M07 A2996 RMK A01 T00941065  RH  032%=      5-min Rain = 0
KCO2 050822Z 27004KT 09/M07 A2996 RMK A01 T00941065  RH  032%=      5-min Rain = 0
KCO2 050823Z 27004KT 09/M07 A2996 RMK A01 T00941065  RH  032%=      5-min Rain = 0
KCO2 050824Z 27004KT 09/M06 A2996 RMK A01 T00941063  RH  032%=      5-min Rain = 0
KCO2 050825Z 28004KT 09/M06 A2996 RMK A01 T00921063  RH  033%=      5-min Rain = 0
KCO2 050826Z 28004KT 09/M06 A2996 RMK A01 T00911063  RH  033%=      5-min Rain = 0
KCO2 050827Z 28004KT 09/M06 A2996 RMK A01 T00901063  RH  033%=      5-min Rain = 0
KCO2 050828Z 28004KT 09/M06 A2996 RMK A01 T00881063  RH  034%=      5-min Rain = 0
KCO2 050829Z 28004KT 09/M06 A2996 RMK A01 T00871063  RH  034%=      5-min Rain = 0
KCO2 050830Z 28004KT 09/M06 A2996 RMK A01 T00861063  RH  034%=      5-min Rain = 0
KCO2 050831Z 28004KT 09/M06 A2996 RMK A01 T00851063  RH  035%=      5-min Rain = 0
KCO2 050832Z 28004KT 08/M06 A2996 RMK A01 T00841062  RH  035%=      5-min Rain = 0
KCO2 050833Z 27003KT 08/M06 A2996 RMK A01 T00831062  RH  035%=      5-min Rain = 0
KCO2 050834Z 27003KT 08/M06 A2996 RMK A01 T00831062  RH  035%=      5-min Rain = 0
KCO2 050835Z 26003KT 08/M06 A2996 RMK A01 T00831062  RH  035%=      5-min Rain = 0
KCO2 050836Z 26003KT 08/M06 A2996 RMK A01 T00831061  RH  035%=      5-min Rain = 0
KCO2 050837Z 26003KT 08/M06 A2996 RMK A01 T00821061  RH  036%=      5-min Rain = 0
KCO2 050838Z 25004KT 08/M06 A2996 RMK A01 T00811062  RH  036%=      5-min Rain = 0
KCO2 050839Z 25004KT 08/M06 A2996 RMK A01 T00811062  RH  036%=      5-min Rain = 0
KCO2 050840Z 24004KT 08/M06 A2996 RMK A01 T00821062  RH  036%=      5-min Rain = 0
KCO2 050841Z 24004KT 08/M06 A2996 RMK A01 T00821061  RH  036%=      5-min Rain = 0
KCO2 050842Z 24003KT 08/M06 A2996 RMK A01 T00821061  RH  036%=      5-min Rain = 0
KCO2 050843Z 25003KT 08/M06 A2996 RMK A01 T00831061  RH  036%=      5-min Rain = 0
KCO2 050844Z 26003KT 08/M06 A2996 RMK A01 T00821061  RH  036%=      5-min Rain = 0
KCO2 050845Z 26003KT 08/M06 A2996 RMK A01 T00821061  RH  036%=      5-min Rain = 0
KCO2 050846Z 26002KT 08/M06 A2996 RMK A01 T00811061  RH  036%=      5-min Rain = 0
KCO2 050847Z 26002KT 08/M06 A2996 RMK A01 T00811060  RH  036%=      5-min Rain = 0
KCO2 050848Z 27003KT 08/M06 A2996 RMK A01 T00801060  RH  037%=      5-min Rain = 0
KCO2 050849Z 27003KT 08/M06 A2996 RMK A01 T00791060  RH  037%=      5-min Rain = 0
KCO2 050850Z 27003KT 08/M06 A2996 RMK A01 T00791059  RH  037%=      5-min Rain = 0
KCO2 050851Z 27003KT 08/M06 A2996 RMK A01 T00811057  RH  037%=      5-min Rain = 0
KCO2 050852Z 27003KT 08/M06 A2996 RMK A01 T00821056  RH  037%=      5-min Rain = 0
KCO2 050853Z 26004KT 08/M06 A2996 RMK A01 T00831057  RH  037%=      5-min Rain = 0
KCO2 050854Z 27004KT 08/M06 A2996 RMK A01 T00841056  RH  037%=      5-min Rain = 0
KCO2 050855Z 27003KT 08/M06 A2996 RMK A01 T00841056  RH  037%=      5-min Rain = 0
KCO2 050856Z 27004KT 09/M06 A2996 RMK A01 T00851055  RH  037%=      5-min Rain = 0
KCO2 050857Z 26004KT 09/M06 A2996 RMK A01 T00861055  RH  037%=      5-min Rain = 0
KCO2 050858Z 27004KT 09/M06 A2996 RMK A01 T00861055  RH  036%=      5-min Rain = 0
KCO2 050859Z 27004KT 09/M06 A2996 RMK A01 T00861055  RH  036%=      5-min Rain = 0
KCO2 050900Z 26004KT 09/M06 A2995 RMK A01 T00861055  RH  036%=      5-min Rain = 0
KCO2 050901Z 26004KT 09/M06 A2995 RMK A01 T00861055  RH  037%=      5-min Rain = 0
KCO2 050902Z 27005KT 09/M06 A2995 RMK A01 T00851055  RH  037%=      5-min Rain = 0
KCO2 050903Z 28005KT 09/M06 A2995 RMK A01 T00851055  RH  037%=      5-min Rain = 0
KCO2 050904Z 28005KT 08/M05 A2995 RMK A01 T00841054  RH  037%=      5-min Rain = 0
KCO2 050905Z 28005KT 08/M05 A2995 RMK A01 T00821054  RH  038%=      5-min Rain = 0
KCO2 050906Z 27005KT 08/M05 A2995 RMK A01 T00811054  RH  038%=      5-min Rain = 0
KCO2 050907Z 27005KT 08/M05 A2995 RMK A01 T00801054  RH  038%=      5-min Rain = 0
KCO2 050908Z 27006KT 08/M05 A2995 RMK A01 T00801053  RH  038%=      5-min Rain = 0
KCO2 050909Z 27007KT 08/M05 A2995 RMK A01 T00791053  RH  039%=      5-min Rain = 0
KCO2 050910Z 27007KT 08/M05 A2995 RMK A01 T00791051  RH  039%=      5-min Rain = 0
KCO2 050911Z 27007KT 08/M05 A2995 RMK A01 T00801050  RH  039%=      5-min Rain = 0
KCO2 050912Z 28007KT 08/M05 A2995 RMK A01 T00811048  RH  040%=      5-min Rain = 0
KCO2 050913Z 28007KT 08/M05 A2995 RMK A01 T00831048  RH  039%=      5-min Rain = 0
KCO2 050914Z 28008KT 09/M05 A2995 RMK A01 T00851047  RH  039%=      5-min Rain = 0
KCO2 050915Z 27007KT 09/M05 A2995 RMK A01 T00871047  RH  038%=      5-min Rain = 0
KCO2 050916Z 27007KT 09/M05 A2995 RMK A01 T00881047  RH  038%=      5-min Rain = 0
KCO2 050917Z 27007KT 09/M05 A2995 RMK A01 T00891047  RH  038%=      5-min Rain = 0
KCO2 050918Z 27008KT 09/M05 A2996 RMK A01 T00891047  RH  038%=      5-min Rain = 0
KCO2 050919Z 27008KT 09/M05 A2996 RMK A01 T00901047  RH  038%=      5-min Rain = 0
KCO2 050920Z 27007KT 09/M05 A2996 RMK A01 T00901047  RH  038%=      5-min Rain = 0
KCO2 050921Z 27008KT 09/M05 A2996 RMK A01 T00901047  RH  038%=      5-min Rain = 0
KCO2 050922Z 27007KT 09/M05 A2996 RMK A01 T00901047  RH  038%=      5-min Rain = 0
KCO2 050923Z 27008KT 09/M05 A2996 RMK A01 T00901047  RH  037%=      5-min Rain = 0
KCO2 050924Z 27008KT 09/M05 A2996 RMK A01 T00901048  RH  037%=      5-min Rain = 0
KCO2 050925Z 27007KT 09/M05 A2995 RMK A01 T00901047  RH  037%=      5-min Rain = 0
KCO2 050926Z 28007KT 09/M05 A2995 RMK A01 T00901048  RH  037%=      5-min Rain = 0
KCO2 050927Z 28008KT 09/M05 A2995 RMK A01 T00911047  RH  037%=      5-min Rain = 0
KCO2 050928Z 27007KT 09/M05 A2996 RMK A01 T00901048  RH  037%=      5-min Rain = 0
KCO2 050929Z 27007KT 09/M05 A2996 RMK A01 T00901047  RH  037%=      5-min Rain = 0
KCO2 050930Z 27007KT 09/M05 A2996 RMK A01 T00901048  RH  038%=      5-min Rain = 0
KCO2 050931Z 27007KT 09/M05 A2996 RMK A01 T00891047  RH  038%=      5-min Rain = 0
KCO2 050932Z 27007KT 09/M05 A2996 RMK A01 T00891047  RH  038%=      5-min Rain = 0
KCO2 050933Z 27008KT 09/M05 A2996 RMK A01 T00891047  RH  038%=      5-min Rain = 0
KCO2 050934Z 27008KT 09/M05 A2996 RMK A01 T00881047  RH  038%=      5-min Rain = 0
KCO2 050935Z 27007KT 09/M05 A2996 RMK A01 T00881047  RH  038%=      5-min Rain = 0
KCO2 050936Z 27008KT 09/M05 A2996 RMK A01 T00891047  RH  038%=      5-min Rain = 0
KCO2 050937Z 28008KT 09/M05 A2996 RMK A01 T00891047  RH  038%=      5-min Rain = 0
KCO2 050938Z 28008KT 09/M05 A2996 RMK A01 T00891047  RH  038%=      5-min Rain = 0
KCO2 050939Z 28008KT 09/M05 A2996 RMK A01 T00891047  RH  038%=      5-min Rain = 0
KCO2 050940Z 28009KT 09/M05 A2996 RMK A01 T00891046  RH  038%=      5-min Rain = 0
KCO2 050941Z 28009KT 09/M05 A2996 RMK A01 T00891046  RH  038%=      5-min Rain = 0
KCO2 050942Z 28009KT 09/M05 A2996 RMK A01 T00891046  RH  038%=      5-min Rain = 0
KCO2 050943Z 28008KT 09/M05 A2996 RMK A01 T00901045  RH  038%=      5-min Rain = 0
KCO2 050944Z 28009KT 09/M05 A2996 RMK A01 T00901046  RH  038%=      5-min Rain = 0
KCO2 050945Z 29008KT 09/M05 A2996 RMK A01 T00911045  RH  038%=      5-min Rain = 0
KCO2 050946Z 28008KT 09/M05 A2996 RMK A01 T00911046  RH  038%=      5-min Rain = 0
KCO2 050947Z 28008KT 09/M05 A2996 RMK A01 T00911046  RH  038%=      5-min Rain = 0
KCO2 050948Z 28008KT 09/M05 A2996 RMK A01 T00911046  RH  038%=      5-min Rain = 0
KCO2 050949Z 28006KT 09/M05 A2996 RMK A01 T00911046  RH  038%=      5-min Rain = 0
KCO2 050950Z 29006KT 09/M05 A2996 RMK A01 T00911046  RH  038%=      5-min Rain = 0
KCO2 050951Z 28007KT 09/M05 A2996 RMK A01 T00901046  RH  038%=      5-min Rain = 0
KCO2 050952Z 28008KT 09/M05 A2996 RMK A01 T00901046  RH  038%=      5-min Rain = 0
KCO2 050953Z 28008KT 09/M05 A2997 RMK A01 T00901046  RH  038%=      5-min Rain = 0
KCO2 050954Z 28007KT 09/M05 A2997 RMK A01 T00911045  RH  038%=      5-min Rain = 0
KCO2 050955Z 27007KT 09/M05 A2997 RMK A01 T00911045  RH  038%=      5-min Rain = 0
KCO2 050956Z 27007KT 09/M05 A2997 RMK A01 T00901046  RH  038%=      5-min Rain = 0
KCO2 050957Z 27007KT 09/M05 A2997 RMK A01 T00901045  RH  038%=      5-min Rain = 0
KCO2 050958Z 27006KT 09/M05 A2996 RMK A01 T00901045  RH  038%=      5-min Rain = 0
KCO2 050959Z 27007KT 09/M05 A2996 RMK A01 T00901045  RH  038%=      5-min Rain = 0
KCO2 051000Z 27006KT 09/M05 A2996 RMK A01 T00901045  RH  038%=      5-min Rain = 0
KCO2 051001Z 27008KT 09/M05 A2996 RMK A01 T00901045  RH  038%=      5-min Rain = 0
KCO2 051002Z 27007KT 09/M05 A2996 RMK A01 T00911045  RH  038%=      5-min Rain = 0
KCO2 051003Z 27006KT 09/M05 A2996 RMK A01 T00921045  RH  038%=      5-min Rain = 0
KCO2 051004Z 28007KT 09/M05 A2996 RMK A01 T00921045  RH  037%=      5-min Rain = 0
KCO2 051005Z 27006KT 09/M05 A2996 RMK A01 T00911046  RH  038%=      5-min Rain = 0
KCO2 051006Z 28007KT 09/M05 A2996 RMK A01 T00901046  RH  038%=      5-min Rain = 0
KCO2 051007Z 28007KT 09/M05 A2996 RMK A01 T00901045  RH  038%=      5-min Rain = 0
KCO2 051008Z 28006KT 09/M05 A2996 RMK A01 T00901046  RH  038%=      5-min Rain = 0
KCO2 051009Z 28006KT 09/M05 A2997 RMK A01 T00891046  RH  038%=      5-min Rain = 0
KCO2 051010Z 28006KT 09/M05 A2997 RMK A01 T00891045  RH  038%=      5-min Rain = 0
KCO2 051011Z 28006KT 09/M05 A2997 RMK A01 T00881046  RH  038%=      5-min Rain = 0
KCO2 051012Z 28005KT 09/M05 A2997 RMK A01 T00881046  RH  039%=      5-min Rain = 0
KCO2 051013Z 28005KT 09/M05 A2997 RMK A01 T00871046  RH  039%=      5-min Rain = 0
KCO2 051014Z 28005KT 09/M05 A2997 RMK A01 T00861046  RH  039%=      5-min Rain = 0
KCO2 051015Z 28004KT 09/M05 A2997 RMK A01 T00861046  RH  039%=      5-min Rain = 0
KCO2 051016Z 28004KT 09/M05 A2997 RMK A01 T00851046  RH  039%=      5-min Rain = 0
KCO2 051017Z 28004KT 09/M05 A2997 RMK A01 T00851046  RH  039%=      5-min Rain = 0
KCO2 051018Z 28003KT 09/M05 A2997 RMK A01 T00851046  RH  039%=      5-min Rain = 0
KCO2 051019Z 29004KT 09/M05 A2997 RMK A01 T00851046  RH  039%=      5-min Rain = 0
KCO2 051020Z 28003KT 09/M05 A2997 RMK A01 T00851046  RH  039%=      5-min Rain = 0
KCO2 051021Z 29003KT 08/M05 A2997 RMK A01 T00841046  RH  039%=      5-min Rain = 0
KCO2 051022Z 28003KT 08/M05 A2998 RMK A01 T00841046  RH  039%=      5-min Rain = 0
KCO2 051023Z 28003KT 08/M05 A2998 RMK A01 T00841046  RH  039%=      5-min Rain = 0
KCO2 051024Z 27003KT 08/M05 A2998 RMK A01 T00841047  RH  039%=      5-min Rain = 0
KCO2 051025Z 28002KT 08/M05 A2998 RMK A01 T00831047  RH  039%=      5-min Rain = 0
KCO2 051026Z 28001KT 08/M05 A2998 RMK A01 T00831047  RH  039%=      5-min Rain = 0
KCO2 051027Z 29000KT 08/M05 A2998 RMK A01 T00821047  RH  040%=      5-min Rain = 0
KCO2 051028Z 00000KT 08/M05 A2998 RMK A01 T00821047  RH  040%=      5-min Rain = 0
KCO2 051029Z 23000KT 08/M05 A2998 RMK A01 T00821047  RH  040%=      5-min Rain = 0
KCO2 051030Z 22000KT 08/M05 A2998 RMK A01 T00821047  RH  040%=      5-min Rain = 0
KCO2 051031Z 00000KT 08/M05 A2998 RMK A01 T00821047  RH  040%=      5-min Rain = 0
KCO2 051032Z 00000KT 08/M05 A2998 RMK A01 T00831047  RH  039%=      5-min Rain = 0
KCO2 051033Z 00000KT 08/M05 A2998 RMK A01 T00841048  RH  039%=      5-min Rain = 0
KCO2 051034Z 00000KT 08/M05 A2998 RMK A01 T00811049  RH  039%=      5-min Rain = 0
KCO2 051035Z 35000KT 08/M05 A2998 RMK A01 T00791048  RH  040%=      5-min Rain = 0
KCO2 051036Z 11000KT 08/M05 A2998 RMK A01 T00791048  RH  040%=      5-min Rain = 0
KCO2 051037Z 26000KT 08/M05 A2998 RMK A01 T00781048  RH  041%=      5-min Rain = 0
KCO2 051038Z 30001KT 08/M05 A2998 RMK A01 T00781047  RH  041%=      5-min Rain = 0
KCO2 051039Z 28001KT 08/M05 A2998 RMK A01 T00761048  RH  041%=      5-min Rain = 0
KCO2 051040Z 28002KT 08/M05 A2998 RMK A01 T00761046  RH  042%=      5-min Rain = 0
KCO2 051041Z 29001KT 08/M04 A2998 RMK A01 T00801043  RH  042%=      5-min Rain = 0
KCO2 051042Z 30002KT 08/M04 A2998 RMK A01 T00821043  RH  041%=      5-min Rain = 0
KCO2 051043Z 31004KT 08/M04 A2998 RMK A01 T00821043  RH  041%=      5-min Rain = 0
KCO2 051044Z 31005G10KT 08/M04 A2998 RMK A01 T00831043  RH  041%=      5-min Rain = 0
KCO2 051045Z 31006KT 08/M04 A2998 RMK A01 T00831044  RH  040%=      5-min Rain = 0
KCO2 051046Z 32006KT 08/M04 A2998 RMK A01 T00821044  RH  041%=      5-min Rain = 0
KCO2 051047Z 31006KT 08/M04 A2998 RMK A01 T00811044  RH  041%=      5-min Rain = 0
KCO2 051048Z 32007KT 08/M04 A2998 RMK A01 T00811043  RH  041%=      5-min Rain = 0
KCO2 051049Z 31009KT 08/M04 A2998 RMK A01 T00821042  RH  041%=      5-min Rain = 0
KCO2 051050Z 31009KT 09/M04 A2998 RMK A01 T00851040  RH  041%=      5-min Rain = 0
KCO2 051051Z 31008KT 09/M04 A2998 RMK A01 T00881040  RH  040%=      5-min Rain = 0
KCO2 051052Z 31009KT 09/M04 A2998 RMK A01 T00891040  RH  040%=      5-min Rain = 0
KCO2 051053Z 31009KT 09/M04 A2998 RMK A01 T00901041  RH  040%=      5-min Rain = 0
KCO2 051054Z 32010KT 09/M04 A2998 RMK A01 T00911041  RH  039%=      5-min Rain = 0
KCO2 051055Z 31009KT 09/M04 A2998 RMK A01 T00921041  RH  039%=      5-min Rain = 0
KCO2 051056Z 32009KT 09/M04 A2998 RMK A01 T00911041  RH  039%=      5-min Rain = 0
KCO2 051057Z 31008KT 09/M04 A2998 RMK A01 T00911041  RH  039%=      5-min Rain = 0
KCO2 051058Z 31010KT 09/M04 A2998 RMK A01 T00911042  RH  039%=      5-min Rain = 0
KCO2 051059Z 31010KT 09/M04 A2998 RMK A01 T00911041  RH  039%=      5-min Rain = 0
KCO2 051100Z 31010KT 09/M04 A2998 RMK A01 T00911041  RH  039%=      5-min Rain = 0
KCO2 051101Z 32011KT 09/M04 A2998 RMK A01 T00911042  RH  039%=      5-min Rain = 0
KCO2 051102Z 32009KT 09/M04 A2999 RMK A01 T00921041  RH  039%=      5-min Rain = 0
KCO2 051103Z 31010KT 09/M04 A2999 RMK A01 T00911042  RH  039%=      5-min Rain = 0
KCO2 051104Z 32011KT 09/M04 A2999 RMK A01 T00921042  RH  039%=      5-min Rain = 0
KCO2 051105Z 31009KT 09/M04 A2999 RMK A01 T00921042  RH  039%=      5-min Rain = 0
KCO2 051106Z 31009KT 09/M04 A2999 RMK A01 T00921041  RH  039%=      5-min Rain = 0
KCO2 051107Z 31010KT 09/M04 A2999 RMK A01 T00921041  RH  039%=      5-min Rain = 0
KCO2 051108Z 32009KT 09/M04 A2999 RMK A01 T00921041  RH  039%=      5-min Rain = 0
KCO2 051109Z 32008KT 09/M04 A2999 RMK A01 T00911042  RH  039%=      5-min Rain = 0
KCO2 051110Z 31009KT 09/M04 A2999 RMK A01 T00901042  RH  039%=      5-min Rain = 0
KCO2 051111Z 32008KT 09/M04 A2999 RMK A01 T00901042  RH  039%=      5-min Rain = 0
KCO2 051112Z 32008KT 09/M04 A2999 RMK A01 T00901042  RH  039%=      5-min Rain = 0
KCO2 051113Z 32008KT 09/M04 A2999 RMK A01 T00891042  RH  039%=      5-min Rain = 0
KCO2 051114Z 33008KT 09/M04 A2999 RMK A01 T00891042  RH  039%=      5-min Rain = 0
KCO2 051115Z 32006KT 09/M04 A2999 RMK A01 T00881042  RH  039%=      5-min Rain = 0
KCO2 051116Z 32008KT 09/M04 A2999 RMK A01 T00871042  RH  040%=      5-min Rain = 0
KCO2 051117Z 32006KT 09/M04 A2999 RMK A01 T00871042  RH  040%=      5-min Rain = 0
KCO2 051118Z 32008KT 09/M04 A2999 RMK A01 T00871042  RH  040%=      5-min Rain = 0
KCO2 051119Z 32007KT 09/M04 A2999 RMK A01 T00871042  RH  040%=      5-min Rain = 0
KCO2 051120Z 32006KT 09/M04 A2999 RMK A01 T00861042  RH  040%=      5-min Rain = 0
KCO2 051121Z 32006KT 09/M04 A2999 RMK A01 T00851042  RH  040%=      5-min Rain = 0
KCO2 051122Z 32007KT 08/M04 A2999 RMK A01 T00841042  RH  041%=      5-min Rain = 0
KCO2 051123Z 32007KT 08/M04 A2999 RMK A01 T00841042  RH  041%=      5-min Rain = 0
KCO2 051124Z 32007KT 08/M04 A30 RMK A01 T00841041  RH  041%=      5-min Rain = 0
KCO2 051125Z 32007KT 08/M04 A30 RMK A01 T00831041  RH  041%=      5-min Rain = 0
KCO2 051126Z 33008KT 08/M04 A30 RMK A01 T00831041  RH  041%=      5-min Rain = 0
KCO2 051127Z 32007KT 08/M04 A30 RMK A01 T00821041  RH  041%=      5-min Rain = 0
KCO2 051128Z 31007KT 08/M04 A30 RMK A01 T00821041  RH  042%=      5-min Rain = 0
KCO2 051129Z 32007KT 08/M04 A30 RMK A01 T00811041  RH  042%=      5-min Rain = 0
KCO2 051130Z 32007KT 08/M04 A30 RMK A01 T00811041  RH  042%=      5-min Rain = 0
KCO2 051131Z 32008KT 08/M04 A30 RMK A01 T00821041  RH  042%=      5-min Rain = 0
KCO2 051132Z 33008KT 08/M04 A30 RMK A01 T00811041  RH  042%=      5-min Rain = 0
KCO2 051133Z 32007KT 08/M04 A30 RMK A01 T00821040  RH  042%=      5-min Rain = 0
KCO2 051134Z 32007KT 08/M04 A30 RMK A01 T00821040  RH  042%=      5-min Rain = 0
KCO2 051135Z 32007KT 08/M04 A30 RMK A01 T00801041  RH  042%=      5-min Rain = 0
KCO2 051136Z 32008KT 08/M04 A30 RMK A01 T00801041  RH  042%=      5-min Rain = 0
KCO2 051137Z 32009KT 08/M04 A30 RMK A01 T00801040  RH  042%=      5-min Rain = 0
KCO2 051138Z 32008KT 08/M04 A30 RMK A01 T00801040  RH  042%=      5-min Rain = 0
KCO2 051139Z 32008KT 08/M04 A30 RMK A01 T00811040  RH  042%=      5-min Rain = 0
KCO2 051140Z 32008KT 08/M04 A30 RMK A01 T00801040  RH  042%=      5-min Rain = 0
KCO2 051141Z 32007KT 08/M04 A30 RMK A01 T00801040  RH  042%=      5-min Rain = 0
KCO2 051142Z 32008KT 08/M04 A3001 RMK A01 T00791040  RH  042%=      5-min Rain = 0
KCO2 051143Z 32007KT 08/M04 A3001 RMK A01 T00791040  RH  043%=      5-min Rain = 0
KCO2 051144Z 32007KT 08/M04 A3001 RMK A01 T00791040  RH  043%=      5-min Rain = 0
KCO2 051145Z 32008KT 08/M04 A3001 RMK A01 T00781040  RH  043%=      5-min Rain = 0
KCO2 051146Z 31008KT 08/M04 A3001 RMK A01 T00781040  RH  043%=      5-min Rain = 0
KCO2 051147Z 32008KT 08/M04 A3001 RMK A01 T00781040  RH  043%=      5-min Rain = 0
KCO2 051148Z 31007KT 08/M04 A3001 RMK A01 T00771040  RH  043%=      5-min Rain = 0
KCO2 051149Z 32008KT 08/M04 A3001 RMK A01 T00761040  RH  044%=      5-min Rain = 0
KCO2 051150Z 32008KT 08/M04 A3001 RMK A01 T00761039  RH  044%=      5-min Rain = 0
KCO2 051151Z 31007KT 08/M04 A3001 RMK A01 T00761039  RH  044%=      5-min Rain = 0
KCO2 051152Z 31008KT 08/M04 A3001 RMK A01 T00761039  RH  044%=      5-min Rain = 0
KCO2 051153Z 32007KT 08/M04 A3001 RMK A01 T00761039  RH  044%=      5-min Rain = 0
KCO2 051154Z 32007KT 08/M04 A3001 RMK A01 T00761039  RH  044%=      5-min Rain = 0
KCO2 051155Z 32007KT 08/M04 A3001 RMK A01 T00761039  RH  044%=      5-min Rain = 0
KCO2 051156Z 32006KT 08/M04 A3001 RMK A01 T00751039  RH  044%=      5-min Rain = 0
KCO2 051157Z 31007KT 08/M04 A3001 RMK A01 T00751039  RH  044%=      5-min Rain = 0
KCO2 051158Z 32006KT 07/M04 A3002 RMK A01 T00741039  RH  044%=      5-min Rain = 0
KCO2 051159Z 32006KT 07/M04 A3002 RMK A01 T00741039  RH  044%=      5-min Rain = 0
KCO2 051200Z 32007KT 07/M04 A3002 RMK A01 T00731039  RH  045%=      5-min Rain = 0
KCO2 051201Z 32007KT 07/M04 A3002 RMK A01 T00741039  RH  045%=      5-min Rain = 0
KCO2 051202Z 32006KT 07/M04 A3002 RMK A01 T00741038  RH  045%=      5-min Rain = 0
KCO2 051203Z 32006KT 08/M04 A3002 RMK A01 T00751037  RH  045%=      5-min Rain = 0
KCO2 051204Z 31006KT 08/M04 A3002 RMK A01 T00751038  RH  045%=      5-min Rain = 0
KCO2 051205Z 32006KT 08/M04 A3002 RMK A01 T00751038  RH  045%=      5-min Rain = 0
KCO2 051206Z 32006KT 08/M04 A3002 RMK A01 T00751038  RH  045%=      5-min Rain = 0
KCO2 051207Z 31006KT 07/M04 A3002 RMK A01 T00741038  RH  045%=      5-min Rain = 0
KCO2 051208Z 31005KT 07/M04 A3002 RMK A01 T00741037  RH  045%=      5-min Rain = 0
KCO2 051209Z 31006KT 07/M04 A3002 RMK A01 T00731038  RH  045%=      5-min Rain = 0
KCO2 051210Z 31005KT 07/M04 A3002 RMK A01 T00731037  RH  045%=      5-min Rain = 0
KCO2 051211Z 31005KT 07/M04 A3002 RMK A01 T00731037  RH  046%=      5-min Rain = 0
KCO2 051212Z 31006KT 07/M04 A3002 RMK A01 T00731036  RH  046%=      5-min Rain = 0
KCO2 051213Z 31006KT 07/M04 A3002 RMK A01 T00731036  RH  046%=      5-min Rain = 0
KCO2 051214Z 32006KT 07/M04 A3002 RMK A01 T00741036  RH  046%=      5-min Rain = 0
KCO2 051215Z 32005KT 07/M04 A3002 RMK A01 T00731036  RH  046%=      5-min Rain = 0
KCO2 051216Z 32005KT 07/M04 A3002 RMK A01 T00731036  RH  046%=      5-min Rain = 0
KCO2 051217Z 32005KT 07/M04 A3002 RMK A01 T00721036  RH  046%=      5-min Rain = 0
KCO2 051218Z 32004KT 07/M04 A3002 RMK A01 T00721036  RH  046%=      5-min Rain = 0
KCO2 051219Z 31005KT 07/M04 A3002 RMK A01 T00711036  RH  046%=      5-min Rain = 0
KCO2 051220Z 31005KT 07/M04 A3002 RMK A01 T00711035  RH  047%=      5-min Rain = 0
KCO2 051221Z 31005KT 07/M04 A3002 RMK A01 T00711035  RH  047%=      5-min Rain = 0
KCO2 051222Z 31004KT 07/M04 A3002 RMK A01 T00701035  RH  047%=      5-min Rain = 0
KCO2 051223Z 31004KT 07/M04 A3002 RMK A01 T00701035  RH  047%=      5-min Rain = 0
KCO2 051224Z 30004KT 07/M03 A3002 RMK A01 T00701034  RH  047%=      5-min Rain = 0
KCO2 051225Z 31004KT 07/M03 A3002 RMK A01 T00701034  RH  047%=      5-min Rain = 0
KCO2 051226Z 30004KT 07/M03 A3002 RMK A01 T00711034  RH  047%=      5-min Rain = 0
KCO2 051227Z 30004KT 07/M03 A3002 RMK A01 T00711034  RH  047%=      5-min Rain = 0
KCO2 051228Z 31004KT 07/M03 A3002 RMK A01 T00711034  RH  047%=      5-min Rain = 0
KCO2 051229Z 30005KT 07/M03 A3002 RMK A01 T00711034  RH  047%=      5-min Rain = 0
KCO2 051230Z 31005KT 07/M03 A3002 RMK A01 T00711034  RH  047%=      5-min Rain = 0
KCO2 051231Z 30005KT 07/M04 A3002 RMK A01 T00701035  RH  047%=      5-min Rain = 0
KCO2 051232Z 31006KT 07/M04 A3002 RMK A01 T00701035  RH  047%=      5-min Rain = 0
KCO2 051233Z 31005KT 07/M04 A3002 RMK A01 T00701035  RH  047%=      5-min Rain = 0
KCO2 051234Z 31005KT 07/M04 A3002 RMK A01 T00701035  RH  047%=      5-min Rain = 0
KCO2 051235Z 31006KT 07/M03 A3002 RMK A01 T00701034  RH  047%=      5-min Rain = 0
KCO2 051236Z 31006KT 07/M04 A3002 RMK A01 T00691035  RH  048%=      5-min Rain = 0
KCO2 051237Z 31006KT 07/M04 A3002 RMK A01 T00691035  RH  048%=      5-min Rain = 0
KCO2 051238Z 31006KT 07/M04 A3002 RMK A01 T00691035  RH  048%=      5-min Rain = 0
KCO2 051239Z 31006KT 07/M03 A3002 RMK A01 T00701034  RH  048%=      5-min Rain = 0
KCO2 051240Z 30006KT 07/M03 A3002 RMK A01 T00701034  RH  047%=      5-min Rain = 0
KCO2 051241Z 30006KT 07/M03 A3002 RMK A01 T00701034  RH  047%=      5-min Rain = 0
KCO2 051242Z 29007KT 07/M03 A3002 RMK A01 T00701034  RH  047%=      5-min Rain = 0
KCO2 051243Z 30007KT 07/M03 A3002 RMK A01 T00711034  RH  047%=      5-min Rain = 0
KCO2 051244Z 30006KT 07/M03 A3002 RMK A01 T00711034  RH  047%=      5-min Rain = 0
KCO2 051245Z 29005KT 07/M03 A3003 RMK A01 T00711034  RH  047%=      5-min Rain = 0
KCO2 051246Z 29006KT 07/M03 A3003 RMK A01 T00711034  RH  047%=      5-min Rain = 0
KCO2 051247Z 29006KT 07/M03 A3003 RMK A01 T00711033  RH  047%=      5-min Rain = 0
KCO2 051248Z 29006KT 07/M03 A3003 RMK A01 T00711034  RH  047%=      5-min Rain = 0
KCO2 051249Z 29005KT 07/M03 A3003 RMK A01 T00701034  RH  047%=      5-min Rain = 0
KCO2 051250Z 29005KT 07/M04 A3002 RMK A01 T00691035  RH  048%=      5-min Rain = 0
KCO2 051251Z 29006KT 07/M03 A3003 RMK A01 T00691034  RH  048%=      5-min Rain = 0
KCO2 051252Z 29005KT 07/M04 A3003 RMK A01 T00681035  RH  048%=      5-min Rain = 0
KCO2 051253Z 30006KT 07/M04 A3003 RMK A01 T00671035  RH  048%=      5-min Rain = 0
KCO2 051254Z 30006KT 07/M04 A3003 RMK A01 T00661035  RH  049%=      5-min Rain = 0
KCO2 051255Z 30005KT 07/M04 A3003 RMK A01 T00651035  RH  049%=      5-min Rain = 0
KCO2 051256Z 30005KT 07/M03 A3003 RMK A01 T00651034  RH  049%=      5-min Rain = 0
KCO2 051257Z 29005KT 07/M03 A3003 RMK A01 T00651034  RH  049%=      5-min Rain = 0
KCO2 051258Z 29006KT 07/M03 A3003 RMK A01 T00651034  RH  049%=      5-min Rain = 0
KCO2 051259Z 29006KT 06/M03 A3003 RMK A01 T00641034  RH  050%=      5-min Rain = 0
KCO2 051300Z 29006KT 06/M03 A3003 RMK A01 T00641033  RH  050%=      5-min Rain = 0
KCO2 051301Z 29006KT 06/M03 A3003 RMK A01 T00641033  RH  050%=      5-min Rain = 0
KCO2 051302Z 29005KT 06/M03 A3003 RMK A01 T00631033  RH  050%=      5-min Rain = 0
KCO2 051303Z 29006KT 06/M03 A3003 RMK A01 T00631033  RH  050%=      5-min Rain = 0
KCO2 051304Z 29006KT 06/M03 A3003 RMK A01 T00631033  RH  050%=      5-min Rain = 0
KCO2 051305Z 29006KT 06/M03 A3003 RMK A01 T00641032  RH  050%=      5-min Rain = 0
KCO2 051306Z 29006KT 06/M03 A3003 RMK A01 T00641032  RH  050%=      5-min Rain = 0
KCO2 051307Z 29006KT 06/M03 A3003 RMK A01 T00631032  RH  050%=      5-min Rain = 0
KCO2 051308Z 30006KT 06/M03 A3003 RMK A01 T00641032  RH  051%=      5-min Rain = 0
KCO2 051309Z 30006KT 06/M03 A3003 RMK A01 T00631032  RH  051%=      5-min Rain = 0
KCO2 051310Z 31006KT 06/M03 A3003 RMK A01 T00631032  RH  051%=      5-min Rain = 0
KCO2 051311Z 30006KT 06/M03 A3003 RMK A01 T00631031  RH  051%=      5-min Rain = 0
KCO2 051312Z 30006KT 06/M03 A3003 RMK A01 T00631031  RH  051%=      5-min Rain = 0
KCO2 051313Z 31006KT 06/M03 A3003 RMK A01 T00631031  RH  051%=      5-min Rain = 0
KCO2 051314Z 31006KT 06/M03 A3003 RMK A01 T00631031  RH  051%=      5-min Rain = 0
KCO2 051315Z 31006KT 06/M03 A3003 RMK A01 T00631030  RH  051%=      5-min Rain = 0
KCO2 051316Z 31006KT 06/M03 A3003 RMK A01 T00631030  RH  051%=      5-min Rain = 0
KCO2 051317Z 31007KT 06/M03 A3003 RMK A01 T00621030  RH  051%=      5-min Rain = 0
KCO2 051318Z 31007KT 06/M03 A3003 RMK A01 T00631030  RH  052%=      5-min Rain = 0
KCO2 051319Z 31007KT 06/M03 A3003 RMK A01 T00631029  RH  052%=      5-min Rain = 0
KCO2 051320Z 31007KT 06/M03 A3003 RMK A01 T00631029  RH  052%=      5-min Rain = 0
KCO2 051321Z 31008KT 06/M03 A3004 RMK A01 T00631028  RH  052%=      5-min Rain = 0
KCO2 051322Z 31007KT 06/M03 A3004 RMK A01 T00641027  RH  052%=      5-min Rain = 0
KCO2 051323Z 31008KT 06/M03 A3004 RMK A01 T00641027  RH  052%=      5-min Rain = 0
KCO2 051324Z 31007KT 07/M03 A3004 RMK A01 T00651026  RH  052%=      5-min Rain = 0
KCO2 051325Z 31007KT 07/M03 A3004 RMK A01 T00661026  RH  052%=      5-min Rain = 0
KCO2 051326Z 30008KT 07/M03 A3004 RMK A01 T00661025  RH  052%=      5-min Rain = 0
KCO2 051327Z 30007KT 07/M03 A3003 RMK A01 T00671025  RH  052%=      5-min Rain = 0
KCO2 051328Z 30007KT 07/M02 A3003 RMK A01 T00671024  RH  052%=      5-min Rain = 0
KCO2 051329Z 31008KT 07/M02 A3003 RMK A01 T00671024  RH  052%=      5-min Rain = 0
KCO2 051330Z 31007KT 07/M02 A3003 RMK A01 T00691023  RH  052%=      5-min Rain = 0
KCO2 051331Z 31007KT 07/M02 A3003 RMK A01 T00691023  RH  052%=      5-min Rain = 0
KCO2 051332Z 31008KT 07/M02 A3003 RMK A01 T00701023  RH  052%=      5-min Rain = 0
KCO2 051333Z 31008KT 07/M02 A3003 RMK A01 T00701022  RH  052%=      5-min Rain = 0
KCO2 051334Z 31007KT 07/M02 A3003 RMK A01 T00721021  RH  052%=      5-min Rain = 0
KCO2 051335Z 31008KT 07/M02 A3003 RMK A01 T00721021  RH  052%=      5-min Rain = 0
KCO2 051336Z 31008KT 07/M02 A3003 RMK A01 T00731019  RH  052%=      5-min Rain = 0
KCO2 051337Z 31008KT 08/M02 A3003 RMK A01 T00751018  RH  052%=      5-min Rain = 0
KCO2 051338Z 31009KT 08/M02 A3003 RMK A01 T00751017  RH  052%=      5-min Rain = 0
KCO2 051339Z 31009KT 08/M02 A3004 RMK A01 T00771016  RH  052%=      5-min Rain = 0
KCO2 051340Z 31009KT 08/M02 A3004 RMK A01 T00781015  RH  052%=      5-min Rain = 0
KCO2 051341Z 31010KT 08/M01 A3004 RMK A01 T00791014  RH  052%=      5-min Rain = 0
KCO2 051342Z 31010KT 08/M01 A3004 RMK A01 T00801013  RH  052%=      5-min Rain = 0
KCO2 051343Z 31009KT 08/M01 A3004 RMK A01 T00811013  RH  052%=      5-min Rain = 0
KCO2 051344Z 31009KT 08/M01 A3004 RMK A01 T00821011  RH  052%=      5-min Rain = 0
KCO2 051345Z 31010KT 08/M01 A3004 RMK A01 T00831011  RH  052%=      5-min Rain = 0
KCO2 051346Z 31011KT 09/M01 A3004 RMK A01 T00851009  RH  052%=      5-min Rain = 0
KCO2 051347Z 31010KT 09/M01 A3004 RMK A01 T00861008  RH  052%=      5-min Rain = 0
KCO2 051348Z 31011KT 09/M01 A3004 RMK A01 T00871007  RH  052%=      5-min Rain = 0
KCO2 051349Z 31011KT 09/M01 A3004 RMK A01 T00891005  RH  052%=      5-min Rain = 0
KCO2 051350Z 31009KT 09/M01 A3004 RMK A01 T00901005  RH  052%=      5-min Rain = 0
KCO2 051351Z 31010KT 09/M00 A3004 RMK A01 T00911004  RH  051%=      5-min Rain = 0
KCO2 051352Z 31011KT 09/M00 A3004 RMK A01 T00921003  RH  051%=      5-min Rain = 0
KCO2 051353Z 31009KT 09/M00 A3004 RMK A01 T00931003  RH  051%=      5-min Rain = 0
KCO2 051354Z 32010KT 09/M00 A3004 RMK A01 T00931002  RH  051%=      5-min Rain = 0
KCO2 051355Z 31009G14KT 10/M00 A3004 RMK A01 T00951001  RH  051%=      5-min Rain = 0
KCO2 051356Z 32010KT 10/00 A3004 RMK A01 T00960000  RH  051%=      5-min Rain = 0
KCO2 051357Z 32010KT 10/00 A3004 RMK A01 T00970001  RH  051%=      5-min Rain = 0
KCO2 051358Z 32011KT 10/00 A3004 RMK A01 T00980002  RH  051%=      5-min Rain = 0
KCO2 051359Z 31010KT 10/00 A3004 RMK A01 T00990004  RH  051%=      5-min Rain = 0
KCO2 051400Z 32011KT 10/00 A3004 RMK A01 T01000004  RH  051%=      5-min Rain = 0
KCO2 051401Z 32010KT 10/01 A3004 RMK A01 T01010005  RH  051%=      5-min Rain = 0
KCO2 051402Z 31010KT 10/01 A3004 RMK A01 T01030006  RH  051%=      5-min Rain = 0
KCO2 051403Z 31010KT 10/01 A3004 RMK A01 T01040006  RH  051%=      5-min Rain = 0
KCO2 051404Z 31011KT 10/01 A3004 RMK A01 T01040006  RH  051%=      5-min Rain = 0
KCO2 051405Z 31011KT 11/01 A3004 RMK A01 T01050007  RH  050%=      5-min Rain = 0
KCO2 051406Z 31012KT 11/01 A3004 RMK A01 T01060007  RH  050%=      5-min Rain = 0
KCO2 051407Z 31010KT 11/01 A3004 RMK A01 T01060007  RH  050%=      5-min Rain = 0
KCO2 051408Z 31011KT 11/01 A3004 RMK A01 T01060007  RH  050%=      5-min Rain = 0
KCO2 051409Z 31013G19KT 11/01 A3004 RMK A01 T01070008  RH  050%=      5-min Rain = 0
KCO2 051410Z 32014KT 11/01 A3005 RMK A01 T01080008  RH  050%=      5-min Rain = 0
KCO2 051411Z 31013KT 11/01 A3005 RMK A01 T01080008  RH  050%=      5-min Rain = 0
KCO2 051412Z 32015KT 11/01 A3005 RMK A01 T01090009  RH  050%=      5-min Rain = 0
KCO2 051413Z 32013KT 11/01 A3005 RMK A01 T01090009  RH  050%=      5-min Rain = 0
KCO2 051414Z 32012KT 11/01 A3005 RMK A01 T01090009  RH  050%=      5-min Rain = 0
KCO2 051415Z 32014KT 11/01 A3005 RMK A01 T01100010  RH  050%=      5-min Rain = 0
KCO2 051416Z 31010KT 11/01 A3005 RMK A01 T01100010  RH  050%=      5-min Rain = 0
KCO2 051417Z 31010KT 11/01 A3005 RMK A01 T01110011  RH  050%=      5-min Rain = 0
KCO2 051418Z 31012KT 11/01 A3005 RMK A01 T01120011  RH  050%=      5-min Rain = 0
KCO2 051419Z 31012KT 11/01 A3005 RMK A01 T01130011  RH  050%=      5-min Rain = 0
KCO2 051420Z 31011KT 11/01 A3005 RMK A01 T01130012  RH  050%=      5-min Rain = 0
KCO2 051421Z 31017KT 11/01 A3005 RMK A01 T01140013  RH  050%=      5-min Rain = 0
KCO2 051422Z 31013KT 11/01 A3005 RMK A01 T01140013  RH  050%=      5-min Rain = 0
KCO2 051423Z 32017G22KT 11/01 A3005 RMK A01 T01140013  RH  050%=      5-min Rain = 0
KCO2 051424Z 32016KT 11/01 A3005 RMK A01 T01140013  RH  050%=      5-min Rain = 0
KCO2 051425Z 32014KT 11/01 A3005 RMK A01 T01130014  RH  050%=      5-min Rain = 0
KCO2 051426Z 31012KT 11/01 A3005 RMK A01 T01140014  RH  050%=      5-min Rain = 0
KCO2 051427Z 32014KT 12/02 A3005 RMK A01 T01150015  RH  050%=      5-min Rain = 0
KCO2 051428Z 32015KT 12/02 A3005 RMK A01 T01170016  RH  050%=      5-min Rain = 0
KCO2 051429Z 31014G20KT 12/02 A3005 RMK A01 T01160016  RH  050%=      5-min Rain = 0
KCO2 051430Z 31015KT 12/02 A3006 RMK A01 T01170017  RH  050%=      5-min Rain = 0
KCO2 051431Z 31014KT 12/02 A3005 RMK A01 T01180017  RH  050%=      5-min Rain = 0
KCO2 051432Z 31015KT 12/02 A3005 RMK A01 T01180017  RH  050%=      5-min Rain = 0
KCO2 051433Z 32012KT 12/02 A3006 RMK A01 T01190018  RH  050%=      5-min Rain = 0
KCO2 051434Z 31015KT 12/02 A3006 RMK A01 T01200019  RH  050%=      5-min Rain = 0
KCO2 051435Z 32018KT 12/02 A3006 RMK A01 T01210020  RH  050%=      5-min Rain = 0
KCO2 051436Z 31017KT 12/02 A3006 RMK A01 T01220019  RH  050%=      5-min Rain = 0
KCO2 051437Z 31016KT 12/02 A3006 RMK A01 T01210019  RH  050%=      5-min Rain = 0
KCO2 051438Z 31015KT 12/02 A3006 RMK A01 T01210018  RH  050%=      5-min Rain = 0
KCO2 051439Z 31015G20KT 12/02 A3006 RMK A01 T01210019  RH  050%=      5-min Rain = 0
KCO2 051440Z 31018KT 12/02 A3006 RMK A01 T01210018  RH  050%=      5-min Rain = 0
KCO2 051441Z 31015KT 12/02 A3006 RMK A01 T01200018  RH  050%=      5-min Rain = 0
KCO2 051442Z 31015KT 12/02 A3006 RMK A01 T01210019  RH  049%=      5-min Rain = 0
KCO2 051443Z 32016KT 12/02 A3006 RMK A01 T01220019  RH  049%=      5-min Rain = 0
KCO2 051444Z 31014KT 12/02 A3006 RMK A01 T01220019  RH  049%=      5-min Rain = 0
KCO2 051445Z 31016KT 12/02 A3006 RMK A01 T01230020  RH  049%=      5-min Rain = 0
KCO2 051446Z 31017KT 12/02 A3006 RMK A01 T01240020  RH  049%=      5-min Rain = 0
KCO2 051447Z 31018KT 12/02 A3006 RMK A01 T01240019  RH  049%=      5-min Rain = 0
KCO2 051448Z 31017KT 12/02 A3006 RMK A01 T01230020  RH  049%=      5-min Rain = 0
KCO2 051449Z 32020KT 12/02 A3006 RMK A01 T01240020  RH  049%=      5-min Rain = 0
KCO2 051450Z 31015KT 12/02 A3006 RMK A01 T01240019  RH  049%=      5-min Rain = 0
KCO2 051451Z 32014G20KT 13/02 A3007 RMK A01 T01260021  RH  049%=      5-min Rain = 0
KCO2 051452Z 31016KT 13/02 A3006 RMK A01 T01270021  RH  049%=      5-min Rain = 0
KCO2 051453Z 31018KT 13/02 A3006 RMK A01 T01270021  RH  048%=      5-min Rain = 0
KCO2 051454Z 31015KT 13/02 A3006 RMK A01 T01280021  RH  048%=      5-min Rain = 0
KCO2 051455Z 31018G24KT 13/02 A3006 RMK A01 T01270022  RH  049%=      5-min Rain = 0
KCO2 051456Z 31019KT 13/02 A3006 RMK A01 T01270022  RH  049%=      5-min Rain = 0
KCO2 051457Z 31016G21KT 13/02 A3006 RMK A01 T01270022  RH  049%=      5-min Rain = 0
KCO2 051458Z 31019G25KT 13/02 A3006 RMK A01 T01280023  RH  049%=      5-min Rain = 0
KCO2 051459Z 32018KT 13/02 A3006 RMK A01 T01280022  RH  049%=      5-min Rain = 0
KCO2 051500Z 32021KT 13/02 A3007 RMK A01 T01280022  RH  049%=      5-min Rain = 0
KCO2 051501Z 33018G23KT 13/02 A3007 RMK A01 T01280023  RH  049%=      5-min Rain = 0
KCO2 051502Z 33019KT 13/03 A3007 RMK A01 T01290025  RH  049%=      5-min Rain = 0
KCO2 051503Z 32016KT 13/02 A3007 RMK A01 T01300024  RH  049%=      5-min Rain = 0
KCO2 051504Z 32016G22KT 13/03 A3007 RMK A01 T01320026  RH  049%=      5-min Rain = 0
KCO2 051505Z 32013G18KT 13/03 A3007 RMK A01 T01340027  RH  048%=      5-min Rain = 0
KCO2 051506Z 31020KT 14/03 A3007 RMK A01 T01360027  RH  048%=      5-min Rain = 0
KCO2 051507Z 32024G29KT 14/03 A3007 RMK A01 T01350027  RH  048%=      5-min Rain = 0
KCO2 051508Z 33022KT 13/03 A3007 RMK A01 T01340027  RH  048%=      5-min Rain = 0
KCO2 051509Z 33019G26KT 13/03 A3007 RMK A01 T01330027  RH  049%=      5-min Rain = 0
KCO2 051510Z 33021G26KT 13/03 A3007 RMK A01 T01340028  RH  049%=      5-min Rain = 0
KCO2 051511Z 33020G25KT 13/03 A3007 RMK A01 T01330027  RH  049%=      5-min Rain = 0
KCO2 051512Z 33015KT 13/03 A3007 RMK A01 T01330028  RH  049%=      5-min Rain = 0
KCO2 051513Z 32020G26KT 14/03 A3007 RMK A01 T01360029  RH  048%=      5-min Rain = 0
KCO2 051514Z 32019G25KT 14/03 A3007 RMK A01 T01350028  RH  048%=      5-min Rain = 0
KCO2 051515Z 32014G19KT 14/03 A3007 RMK A01 T01360029  RH  048%=      5-min Rain = 0
KCO2 051516Z 32020G25KT 14/03 A3007 RMK A01 T01380029  RH  048%=      5-min Rain = 0
KCO2 051517Z 32016G21KT 14/03 A3007 RMK A01 T01380029  RH  048%=      5-min Rain = 0
KCO2 051518Z 32019KT 14/03 A3007 RMK A01 T01390030  RH  048%=      5-min Rain = 0
KCO2 051519Z 33019KT 14/03 A3007 RMK A01 T01400031  RH  048%=      5-min Rain = 0
KCO2 051520Z 33021KT 14/03 A3007 RMK A01 T01400031  RH  048%=      5-min Rain = 0
KCO2 051521Z 33017G22KT 14/03 A3007 RMK A01 T01400031  RH  048%=      5-min Rain = 0
KCO2 051522Z 33019G24KT 14/03 A3007 RMK A01 T01420032  RH  048%=      5-min Rain = 0
KCO2 051523Z 32019G27KT 14/03 A3007 RMK A01 T01430032  RH  047%=      5-min Rain = 0
KCO2 051524Z 32020KT 14/03 A3007 RMK A01 T01430032  RH  047%=      5-min Rain = 0
KCO2 051525Z 32023KT 14/03 A3007 RMK A01 T01420032  RH  047%=      5-min Rain = 0
KCO2 051526Z 32022KT 14/03 A3007 RMK A01 T01410032  RH  048%=      5-min Rain = 0
KCO2 051527Z 33025G32KT 14/03 A3007 RMK A01 T01400032  RH  048%=      5-min Rain = 0
KCO2 051528Z 32021KT 14/03 A3007 RMK A01 T01400033  RH  048%=      5-min Rain = 0
KCO2 051529Z 32018G27KT 14/03 A3007 RMK A01 T01410034  RH  048%=      5-min Rain = 0
KCO2 051530Z 33019KT 14/03 A3008 RMK A01 T01430034  RH  048%=      5-min Rain = 0
KCO2 051531Z 34020G25KT 14/04 A3008 RMK A01 T01440035  RH  048%=      5-min Rain = 0
KCO2 051532Z 33016G22KT 15/04 A3008 RMK A01 T01460035  RH  047%=      5-min Rain = 0
KCO2 051533Z 32016KT 15/04 A3008 RMK A01 T01490036  RH  047%=      5-min Rain = 0
KCO2 051534Z 33020KT 15/04 A3008 RMK A01 T01490036  RH  047%=      5-min Rain = 0
KCO2 051535Z 33019G24KT 15/04 A3008 RMK A01 T01480035  RH  047%=      5-min Rain = 0
KCO2 051536Z 34023KT 15/04 A3007 RMK A01 T01480036  RH  047%=      5-min Rain = 0
KCO2 051537Z 33021G26KT 15/04 A3008 RMK A01 T01470036  RH  047%=      5-min Rain = 0
KCO2 051538Z 33021G28KT 15/04 A3008 RMK A01 T01470036  RH  047%=      5-min Rain = 0
KCO2 051539Z 33024G30KT 15/04 A3008 RMK A01 T01470036  RH  047%=      5-min Rain = 0
KCO2 051540Z 34017G23KT 15/04 A3008 RMK A01 T01460037  RH  048%=      5-min Rain = 0
KCO2 051541Z 34023KT 15/04 A3008 RMK A01 T01480038  RH  047%=      5-min Rain = 0
KCO2 051542Z 34023G32KT 15/04 A3008 RMK A01 T01490037  RH  047%=      5-min Rain = 0
KCO2 051543Z 33023G28KT 15/04 A3008 RMK A01 T01490037  RH  047%=      5-min Rain = 0
KCO2 051544Z 33019KT 15/04 A3008 RMK A01 T01490037  RH  047%=      5-min Rain = 0
KCO2 051545Z 33017G22KT 15/04 A3008 RMK A01 T01490038  RH  047%=      5-min Rain = 0
KCO2 051546Z 33023G30KT 15/04 A3008 RMK A01 T01520039  RH  047%=      5-min Rain = 0
KCO2 051547Z 33022KT 15/04 A3008 RMK A01 T01510038  RH  047%=      5-min Rain = 0
KCO2 051548Z 33020KT 15/04 A3008 RMK A01 T01510038  RH  047%=      5-min Rain = 0
KCO2 051549Z 33015G20KT 15/04 A3008 RMK A01 T01500038  RH  047%=      5-min Rain = 0
KCO2 051550Z 33018G27KT 15/04 A3008 RMK A01 T01540041  RH  047%=      5-min Rain = 0
KCO2 051551Z 32020G25KT 16/04 A3008 RMK A01 T01560039  RH  046%=      5-min Rain = 0
KCO2 051552Z 33019G25KT 16/04 A3008 RMK A01 T01550040  RH  046%=      5-min Rain = 0
KCO2 051553Z 32021G27KT 16/04 A3008 RMK A01 T01550040  RH  046%=      5-min Rain = 0
KCO2 051554Z 33019G27KT 16/04 A3008 RMK A01 T01550040  RH  046%=      5-min Rain = 0
KCO2 051555Z 33020G25KT 16/04 A3008 RMK A01 T01560041  RH  046%=      5-min Rain = 0
KCO2 051556Z 32022KT 16/04 A3007 RMK A01 T01560040  RH  046%=      5-min Rain = 0
KCO2 051557Z 34016KT 16/04 A3008 RMK A01 T01560041  RH  046%=      5-min Rain = 0
KCO2 051558Z 34018G25KT 16/04 A3008 RMK A01 T01590042  RH  046%=      5-min Rain = 0
KCO2 051559Z 33022G27KT 16/04 A3007 RMK A01 T01610041  RH  045%=      5-min Rain = 0
KCO2 051600Z 32021KT 16/04 A3008 RMK A01 T01600040  RH  045%=      5-min Rain = 0
KCO2 051601Z 33021KT 16/04 A3008 RMK A01 T01590039  RH  045%=      5-min Rain = 0
KCO2 051602Z 33022G27KT 16/04 A3008 RMK A01 T01590040  RH  045%=      5-min Rain = 0
KCO2 051603Z 33023KT 16/04 A3008 RMK A01 T01580040  RH  045%=      5-min Rain = 0
KCO2 051604Z 33022G27KT 16/04 A3008 RMK A01 T01580040  RH  045%=      5-min Rain = 0
KCO2 051605Z 33022KT 16/04 A3008 RMK A01 T01580040  RH  045%=      5-min Rain = 0
KCO2 051606Z 33021KT 16/04 A3008 RMK A01 T01590041  RH  045%=      5-min Rain = 0
KCO2 051607Z 34022KT 16/04 A3008 RMK A01 T01590041  RH  045%=      5-min Rain = 0
KCO2 051608Z 33021G30KT 16/04 A3008 RMK A01 T01590041  RH  046%=      5-min Rain = 0
KCO2 051609Z 33025KT 16/04 A3008 RMK A01 T01590041  RH  045%=      5-min Rain = 0
KCO2 051610Z 33023G29KT 16/04 A3008 RMK A01 T01580041  RH  045%=      5-min Rain = 0
KCO2 051611Z 34021G27KT 16/04 A3008 RMK A01 T01580040  RH  045%=      5-min Rain = 0
KCO2 051612Z 34019G26KT 16/04 A3008 RMK A01 T01600041  RH  045%=      5-min Rain = 0
KCO2 051613Z 33024KT 16/04 A3008 RMK A01 T01620041  RH  045%=      5-min Rain = 0
KCO2 051614Z 34024G29KT 16/04 A3008 RMK A01 T01610042  RH  045%=      5-min Rain = 0
KCO2 051615Z 33019G25KT 16/04 A3008 RMK A01 T01610042  RH  045%=      5-min Rain = 0
KCO2 051616Z 33021G26KT 16/04 A3008 RMK A01 T01610042  RH  045%=      5-min Rain = 0
KCO2 051617Z 34018G23KT 16/04 A3009 RMK A01 T01610042  RH  045%=      5-min Rain = 0
KCO2 051618Z 33023G29KT 16/04 A3009 RMK A01 T01630044  RH  045%=      5-min Rain = 0
KCO2 051619Z 33020G25KT 16/04 A3009 RMK A01 T01630044  RH  045%=      5-min Rain = 0
KCO2 051620Z 33020G25KT 16/04 A3009 RMK A01 T01640044  RH  045%=      5-min Rain = 0
KCO2 051621Z 32020KT 16/04 A3009 RMK A01 T01630043  RH  045%=      5-min Rain = 0
KCO2 051622Z 33018G24KT 16/04 A3009 RMK A01 T01640044  RH  045%=      5-min Rain = 0
KCO2 051623Z 34020KT 17/04 A3009 RMK A01 T01650044  RH  045%=      5-min Rain = 0
KCO2 051624Z 34026KT 17/04 A3009 RMK A01 T01650043  RH  044%=      5-min Rain = 0
KCO2 051625Z 33019G25KT 17/04 A3009 RMK A01 T01650044  RH  045%=      5-min Rain = 0
KCO2 051626Z 33025G31KT 17/04 A3009 RMK A01 T01660043  RH  044%=      5-min Rain = 0
KCO2 051627Z 34023G28KT 16/04 A3009 RMK A01 T01640041  RH  044%=      5-min Rain = 0
KCO2 051628Z 36024KT 16/04 A3009 RMK A01 T01640042  RH  044%=      5-min Rain = 0
KCO2 051629Z 35023G29KT 16/04 A3009 RMK A01 T01640043  RH  044%=      5-min Rain = 0
KCO2 051630Z 35023KT 16/04 A3009 RMK A01 T01630043  RH  045%=      5-min Rain = 0
KCO2 051631Z 34023KT 16/04 A3009 RMK A01 T01630043  RH  045%=      5-min Rain = 0
KCO2 051632Z 34022G28KT 16/04 A3009 RMK A01 T01630044  RH  045%=      5-min Rain = 0
KCO2 051633Z 33023KT 16/04 A3009 RMK A01 T01640044  RH  045%=      5-min Rain = 0
KCO2 051634Z 33021KT 16/04 A3009 RMK A01 T01630044  RH  045%=      5-min Rain = 0
KCO2 051635Z 33022G28KT 16/05 A3009 RMK A01 T01640046  RH  045%=      5-min Rain = 0
KCO2 051636Z 33024G29KT 17/05 A3009 RMK A01 T01650045  RH  045%=      5-min Rain = 0
KCO2 051637Z 35024KT 17/04 A3009 RMK A01 T01650044  RH  045%=      5-min Rain = 0
KCO2 051638Z 34023KT 17/04 A3009 RMK A01 T01650043  RH  044%=      5-min Rain = 0
KCO2 051639Z 34020G26KT 17/04 A3009 RMK A01 T01650044  RH  045%=      5-min Rain = 0
KCO2 051640Z 35022G29KT 17/05 A3009 RMK A01 T01680045  RH  044%=      5-min Rain = 0
KCO2 051641Z 35022G27KT 17/04 A3009 RMK A01 T01690044  RH  044%=      5-min Rain = 0
KCO2 051642Z 35022KT 17/05 A3009 RMK A01 T01680045  RH  044%=      5-min Rain = 0
KCO2 051643Z 35021G26KT 17/05 A3009 RMK A01 T01680047  RH  045%=      5-min Rain = 0
KCO2 051644Z 34022G27KT 17/05 A3009 RMK A01 T01670047  RH  045%=      5-min Rain = 0
KCO2 051645Z 34023KT 17/05 A3009 RMK A01 T01670047  RH  045%=      5-min Rain = 0
KCO2 051646Z 35027KT 17/05 A3009 RMK A01 T01670048  RH  045%=      5-min Rain = 0
KCO2 051647Z 34023G29KT 17/05 A3009 RMK A01 T01660046  RH  045%=      5-min Rain = 0
KCO2 051648Z 34024G30KT 17/05 A3009 RMK A01 T01660047  RH  045%=      5-min Rain = 0
KCO2 051649Z 34023G30KT 17/05 A3009 RMK A01 T01660046  RH  045%=      5-min Rain = 0
KCO2 051650Z 34023G29KT 17/05 A3009 RMK A01 T01670047  RH  045%=      5-min Rain = 0
KCO2 051651Z 34025G30KT 17/05 A3009 RMK A01 T01670047  RH  045%=      5-min Rain = 0
KCO2 051652Z 34021G27KT 17/05 A3009 RMK A01 T01660046  RH  045%=      5-min Rain = 0
KCO2 051653Z 33022G27KT 17/05 A3009 RMK A01 T01650046  RH  045%=      5-min Rain = 0
KCO2 051654Z 34023G29KT 17/05 A301 RMK A01 T01670046  RH  045%=      5-min Rain = 0
KCO2 051655Z 34027G33KT 17/05 A301 RMK A01 T01680046  RH  044%=      5-min Rain = 0
KCO2 051656Z 34024G29KT 17/05 A301 RMK A01 T01670045  RH  044%=      5-min Rain = 0
KCO2 051657Z 34024KT 17/04 A301 RMK A01 T01660044  RH  044%=      5-min Rain = 0
KCO2 051658Z 34021G28KT 17/04 A301 RMK A01 T01660044  RH  044%=      5-min Rain = 0
KCO2 051659Z 34023KT 17/05 A301 RMK A01 T01670045  RH  044%=      5-min Rain = 0
KCO2 051700Z 34021G26KT 17/05 A301 RMK A01 T01670046  RH  045%=      5-min Rain = 0
KCO2 051701Z 33021G26KT 17/05 A301 RMK A01 T01700047  RH  044%=      5-min Rain = 0
KCO2 051702Z 35018KT 17/05 A301 RMK A01 T01730047  RH  043%=      5-min Rain = 0
KCO2 051703Z 35024G33KT 17/05 A301 RMK A01 T01740046  RH  043%=      5-min Rain = 0
KCO2 051704Z 36024G30KT 17/05 A301 RMK A01 T01710045  RH  043%=      5-min Rain = 0
KCO2 051705Z 35025KT 17/05 A301 RMK A01 T01700045  RH  043%=      5-min Rain = 0
KCO2 051706Z 35021G28KT 17/04 A301 RMK A01 T01670043  RH  044%=      5-min Rain = 0
KCO2 051707Z 34023G30KT 17/05 A301 RMK A01 T01680045  RH  044%=      5-min Rain = 0
KCO2 051708Z 34021KT 17/05 A301 RMK A01 T01680045  RH  044%=      5-min Rain = 0
KCO2 051709Z 34023KT 17/05 A301 RMK A01 T01700046  RH  044%=      5-min Rain = 0
KCO2 051710Z 33023KT 17/05 A301 RMK A01 T01710045  RH  043%=      5-min Rain = 0
KCO2 051711Z 33025KT 17/04 A301 RMK A01 T01700044  RH  043%=      5-min Rain = 0
KCO2 051712Z 35022G30KT 17/05 A301 RMK A01 T01690045  RH  044%=      5-min Rain = 0
KCO2 051713Z 35022G27KT 17/05 A301 RMK A01 T01700045  RH  044%=      5-min Rain = 0
KCO2 051714Z 35019G24KT 17/05 A301 RMK A01 T01730046  RH  043%=      5-min Rain = 0
KCO2 051715Z 35019G24KT 17/05 A301 RMK A01 T01740045  RH  042%=      5-min Rain = 0
KCO2 051716Z 35020G25KT 17/05 A301 RMK A01 T01740045  RH  042%=      5-min Rain = 0
KCO2 051717Z 34024G29KT 18/04 A301 RMK A01 T01760044  RH  042%=      5-min Rain = 0
KCO2 051718Z 35022KT 17/04 A3011 RMK A01 T01740043  RH  042%=      5-min Rain = 0
KCO2 051719Z 35022KT 17/04 A3011 RMK A01 T01720043  RH  042%=      5-min Rain = 0
KCO2 051720Z 34023KT 17/04 A3011 RMK A01 T01720044  RH  043%=      5-min Rain = 0
KCO2 051721Z 34025G30KT 17/04 A3011 RMK A01 T01720044  RH  043%=      5-min Rain = 0
KCO2 051722Z 35023KT 17/04 A3011 RMK A01 T01700044  RH  043%=      5-min Rain = 0
KCO2 051723Z 35024KT 17/04 A3011 RMK A01 T01680043  RH  044%=      5-min Rain = 0
KCO2 051724Z 34025G30KT 17/04 A3011 RMK A01 T01660044  RH  044%=      5-min Rain = 0
KCO2 051725Z 34023KT 17/05 A3011 RMK A01 T01670045  RH  044%=      5-min Rain = 0
KCO2 051726Z 34020G25KT 17/04 A3011 RMK A01 T01670044  RH  044%=      5-min Rain = 0
KCO2 051727Z 34017G23KT 17/05 A3012 RMK A01 T01670045  RH  044%=      5-min Rain = 0
KCO2 051728Z 35023KT 17/05 A3012 RMK A01 T01680045  RH  044%=      5-min Rain = 0
KCO2 051729Z 35023G28KT 17/05 A3012 RMK A01 T01690047  RH  044%=      5-min Rain = 0
KCO2 051730Z 35019G24KT 17/05 A3012 RMK A01 T01700047  RH  044%=      5-min Rain = 0
KCO2 051731Z 36018G28KT 17/05 A3012 RMK A01 T01710048  RH  044%=      5-min Rain = 0
KCO2 051732Z 00024G30KT 17/05 A3012 RMK A01 T01740049  RH  043%=      5-min Rain = 0
KCO2 051733Z 36021G26KT 17/05 A3012 RMK A01 T01730048  RH  044%=      5-min Rain = 0
KCO2 051734Z 36021G26KT 17/05 A3012 RMK A01 T01740049  RH  043%=      5-min Rain = 0
KCO2 051735Z 36022G27KT 17/05 A3012 RMK A01 T01730048  RH  044%=      5-min Rain = 0
KCO2 051736Z 34016G23KT 17/05 A3012 RMK A01 T01720049  RH  044%=      5-min Rain = 0
KCO2 051737Z 34020G28KT 18/05 A3012 RMK A01 T01760051  RH  044%=      5-min Rain = 0
KCO2 051738Z 34022KT 18/05 A3013 RMK A01 T01750049  RH  043%=      5-min Rain = 0
KCO2 051739Z 35022G28KT 17/05 A3013 RMK A01 T01710046  RH  044%=      5-min Rain = 0
KCO2 051740Z 35022G28KT 17/05 A3013 RMK A01 T01670047  RH  045%=      5-min Rain = 0
KCO2 051741Z 35018KT 17/05 A3013 RMK A01 T01670048  RH  045%=      5-min Rain = 0
KCO2 051742Z 34020G25KT 17/05 A3013 RMK A01 T01690048  RH  045%=      5-min Rain = 0
KCO2 051743Z 35019KT 17/05 A3013 RMK A01 T01680047  RH  045%=      5-min Rain = 0
KCO2 051744Z 00019G27KT 17/05 A3013 RMK A01 T01710049  RH  045%=      5-min Rain = 0
KCO2 051745Z 01020G25KT 17/05 A3013 RMK A01 T01730048  RH  044%=      5-min Rain = 0
KCO2 051746Z 36025G31KT 17/05 A3013 RMK A01 T01730048  RH  044%=      5-min Rain = 0
KCO2 051747Z 35021G26KT 17/05 A3013 RMK A01 T01730047  RH  043%=      5-min Rain = 0
KCO2 051748Z 36022G27KT 17/05 A3013 RMK A01 T01730048  RH  043%=      5-min Rain = 0
KCO2 051749Z 35020G29KT 17/05 A3013 RMK A01 T01730047  RH  043%=      5-min Rain = 0
KCO2 051750Z 36020G27KT 17/05 A3013 RMK A01 T01730047  RH  043%=      5-min Rain = 0
KCO2 051751Z 01021KT 17/05 A3013 RMK A01 T01730048  RH  043%=      5-min Rain = 0
KCO2 051752Z 01022KT 18/05 A3013 RMK A01 T01760048  RH  043%=      5-min Rain = 0
KCO2 051753Z 00019G24KT 18/05 A3013 RMK A01 T01750047  RH  043%=      5-min Rain = 0
KCO2 051754Z 36019G27KT 17/05 A3013 RMK A01 T01740047  RH  043%=      5-min Rain = 0
KCO2 051755Z 35024G30KT 18/05 A3013 RMK A01 T01750047  RH  043%=      5-min Rain = 0
KCO2 051756Z 35020KT 17/05 A3013 RMK A01 T01730045  RH  043%=      5-min Rain = 0
KCO2 051757Z 01021KT 18/05 A3013 RMK A01 T01750048  RH  043%=      5-min Rain = 0
KCO2 051758Z 00021KT 18/05 A3013 RMK A01 T01770047  RH  042%=      5-min Rain = 0
KCO2 051759Z 36019G25KT 18/05 A3013 RMK A01 T01780048  RH  042%=      5-min Rain = 0
KCO2 051800Z 01025KT 18/05 A3013 RMK A01 T01790047  RH  041%=      5-min Rain = 0
KCO2 051801Z 36020G26KT 18/05 A3013 RMK A01 T01780046  RH  042%=      5-min Rain = 0
KCO2 051802Z 34022G27KT 18/05 A3013 RMK A01 T01790047  RH  041%=      5-min Rain = 0
KCO2 051803Z 35022G27KT 18/05 A3013 RMK A01 T01790045  RH  041%=      5-min Rain = 0
KCO2 051804Z 01023G29KT 18/05 A3014 RMK A01 T01770045  RH  042%=      5-min Rain = 0
KCO2 051805Z 01022G27KT 18/05 A3014 RMK A01 T01770045  RH  042%=      5-min Rain = 0
KCO2 051806Z 00023G28KT 18/05 A3014 RMK A01 T01770045  RH  042%=      5-min Rain = 0
KCO2 051807Z 36020G26KT 18/04 A3014 RMK A01 T01770044  RH  041%=      5-min Rain = 0
KCO2 051808Z 36021G27KT 18/05 A3014 RMK A01 T01750045  RH  042%=      5-min Rain = 0
KCO2 051809Z 01022KT 18/05 A3014 RMK A01 T01750045  RH  042%=      5-min Rain = 0
KCO2 051810Z 36020G27KT 17/05 A3014 RMK A01 T01730045  RH  042%=      5-min Rain = 0
KCO2 051811Z 35022G27KT 17/04 A3014 RMK A01 T01720043  RH  042%=      5-min Rain = 0
KCO2 051812Z 36021G26KT 17/04 A3014 RMK A01 T01710043  RH  043%=      5-min Rain = 0
KCO2 051813Z 00020KT 17/04 A3014 RMK A01 T01710043  RH  043%=      5-min Rain = 0
KCO2 051814Z 35015G21KT 17/04 A3014 RMK A01 T01720044  RH  043%=      5-min Rain = 0
KCO2 051815Z 35017KT 18/05 A3013 RMK A01 T01760045  RH  042%=      5-min Rain = 0
KCO2 051816Z 35020G26KT 18/05 A3014 RMK A01 T01770045  RH  042%=      5-min Rain = 0
KCO2 051817Z 36022KT 18/05 A3014 RMK A01 T01780045  RH  041%=      5-min Rain = 0
KCO2 051818Z 36020KT 17/04 A3014 RMK A01 T01740043  RH  042%=      5-min Rain = 0
KCO2 051819Z 35018G24KT 17/04 A3014 RMK A01 T01740044  RH  042%=      5-min Rain = 0
KCO2 051820Z 36020G26KT 18/04 A3014 RMK A01 T01770044  RH  041%=      5-min Rain = 0
KCO2 051821Z 00017KT 18/04 A3014 RMK A01 T01770044  RH  041%=      5-min Rain = 0
KCO2 051822Z 01019KT 18/04 A3014 RMK A01 T01750043  RH  042%=      5-min Rain = 0
KCO2 051823Z 34016G22KT 17/04 A3014 RMK A01 T01730044  RH  042%=      5-min Rain = 0
KCO2 051824Z 34023KT 18/04 A3014 RMK A01 T01770044  RH  041%=      5-min Rain = 0
KCO2 051825Z 35022G27KT 18/04 A3014 RMK A01 T01760042  RH  041%=      5-min Rain = 0
KCO2 051826Z 35019G25KT 18/04 A3014 RMK A01 T01750042  RH  041%=      5-min Rain = 0
KCO2 051827Z 35021G27KT 18/04 A3014 RMK A01 T01790043  RH  041%=      5-min Rain = 0
KCO2 051828Z 35021KT 18/04 A3014 RMK A01 T01760042  RH  041%=      5-min Rain = 0
KCO2 051829Z 36017G22KT 17/04 A3014 RMK A01 T01740043  RH  042%=      5-min Rain = 0
KCO2 051830Z 00021G27KT 18/04 A3014 RMK A01 T01760043  RH  042%=      5-min Rain = 0
KCO2 051831Z 36022G28KT 18/04 A3013 RMK A01 T01760043  RH  041%=      5-min Rain = 0
KCO2 051832Z 34023KT 18/04 A3013 RMK A01 T01780043  RH  041%=      5-min Rain = 0
KCO2 051833Z 34025KT 18/04 A3013 RMK A01 T01770041  RH  040%=      5-min Rain = 0
KCO2 051834Z 36023G28KT 18/04 A3014 RMK A01 T01750041  RH  041%=      5-min Rain = 0
KCO2 051835Z 00022G27KT 18/04 A3014 RMK A01 T01750041  RH  041%=      5-min Rain = 0
KCO2 051836Z 36020KT 18/04 A3014 RMK A01 T01750041  RH  041%=      5-min Rain = 0
KCO2 051837Z 35016G23KT 18/04 A3013 RMK A01 T01760042  RH  041%=      5-min Rain = 0
KCO2 051838Z 35016KT 18/04 A3014 RMK A01 T01820044  RH  040%=      5-min Rain = 0
KCO2 051839Z 35025KT 18/04 A3014 RMK A01 T01840041  RH  039%=      5-min Rain = 0
KCO2 051840Z 36021G26KT 18/04 A3014 RMK A01 T01780039  RH  040%=      5-min Rain = 0
KCO2 051841Z 35021G27KT 18/04 A3013 RMK A01 T01770041  RH  041%=      5-min Rain = 0
KCO2 051842Z 34019KT 18/04 A3013 RMK A01 T01780041  RH  040%=      5-min Rain = 0
KCO2 051843Z 34022KT 18/04 A3013 RMK A01 T01780040  RH  040%=      5-min Rain = 0
KCO2 051844Z 00022G28KT 18/04 A3013 RMK A01 T01780039  RH  040%=      5-min Rain = 0
KCO2 051845Z 35027G32KT 18/04 A3013 RMK A01 T01800040  RH  039%=      5-min Rain = 0
KCO2 051846Z 36027KT 18/04 A3013 RMK A01 T01780039  RH  040%=      5-min Rain = 0
KCO2 051847Z 35025KT 18/04 A3013 RMK A01 T01750039  RH  040%=      5-min Rain = 0
KCO2 051848Z 36023G29KT 17/04 A3013 RMK A01 T01740040  RH  041%=      5-min Rain = 0
KCO2 051849Z 36021G29KT 18/04 A3012 RMK A01 T01750040  RH  041%=      5-min Rain = 0
KCO2 051850Z 01022G27KT 18/04 A3012 RMK A01 T01790042  RH  040%=      5-min Rain = 0
KCO2 051851Z 01023KT 18/04 A3012 RMK A01 T01790040  RH  040%=      5-min Rain = 0
KCO2 051852Z 01023G28KT 18/04 A3012 RMK A01 T01760040  RH  040%=      5-min Rain = 0
KCO2 051853Z 00020G25KT 18/04 A3012 RMK A01 T01750040  RH  041%=      5-min Rain = 0
KCO2 051854Z 00019G24KT 18/04 A3012 RMK A01 T01760040  RH  040%=      5-min Rain = 0
KCO2 051855Z 00021KT 18/04 A3012 RMK A01 T01780040  RH  040%=      5-min Rain = 0
KCO2 051856Z 35020KT 18/04 A3012 RMK A01 T01790041  RH  040%=      5-min Rain = 0
KCO2 051857Z 36020G25KT 18/04 A3012 RMK A01 T01790041  RH  040%=      5-min Rain = 0
KCO2 051858Z 00020G27KT 18/04 A3012 RMK A01 T01780042  RH  040%=      5-min Rain = 0
KCO2 051859Z 35018G26KT 18/04 A3012 RMK A01 T01780042  RH  041%=      5-min Rain = 0
KCO2 051900Z 35026KT 18/04 A3012 RMK A01 T01820041  RH  039%=      5-min Rain = 0
KCO2 051901Z 34023KT 18/04 A3012 RMK A01 T01790040  RH  040%=      5-min Rain = 0
KCO2 051902Z 35022G28KT 18/04 A3012 RMK A01 T01780041  RH  040%=      5-min Rain = 0
KCO2 051903Z 36021G28KT 18/04 A3012 RMK A01 T01780041  RH  040%=      5-min Rain = 0
KCO2 051904Z 35022KT 18/04 A3012 RMK A01 T01770040  RH  040%=      5-min Rain = 0
KCO2 051905Z 36020G25KT 18/04 A3012 RMK A01 T01790041  RH  040%=      5-min Rain = 0
KCO2 051906Z 01018G24KT 18/04 A3012 RMK A01 T01840043  RH  039%=      5-min Rain = 0
KCO2 051907Z 35017KT 19/04 A3012 RMK A01 T01850041  RH  039%=      5-min Rain = 0
KCO2 051908Z 34018G23KT 18/04 A3011 RMK A01 T01840042  RH  039%=      5-min Rain = 0
KCO2 051909Z 00018KT 19/04 A3012 RMK A01 T01850044  RH  039%=      5-min Rain = 0
KCO2 051910Z 36017KT 19/04 A3011 RMK A01 T01850041  RH  039%=      5-min Rain = 0
KCO2 051911Z 01017G23KT 18/04 A3011 RMK A01 T01830042  RH  039%=      5-min Rain = 0
KCO2 051912Z 00019KT 18/04 A3012 RMK A01 T01840043  RH  039%=      5-min Rain = 0
KCO2 051913Z 35019G24KT 18/04 A3011 RMK A01 T01840039  RH  038%=      5-min Rain = 0
KCO2 051914Z 01022KT 18/04 A3012 RMK A01 T01840039  RH  038%=      5-min Rain = 0
KCO2 051915Z 01025KT 18/04 A3012 RMK A01 T01840038  RH  038%=      5-min Rain = 0
KCO2 051916Z 01019G24KT 18/04 A3012 RMK A01 T01810038  RH  039%=      5-min Rain = 0
KCO2 051917Z 01023KT 18/04 A3012 RMK A01 T01820040  RH  039%=      5-min Rain = 0
KCO2 051918Z 01024KT 18/04 A3012 RMK A01 T01840039  RH  038%=      5-min Rain = 0
KCO2 051919Z 00020KT 18/04 A3012 RMK A01 T01830037  RH  038%=      5-min Rain = 0
KCO2 051920Z 00022G28KT 18/04 A3012 RMK A01 T01830038  RH  038%=      5-min Rain = 0
KCO2 051921Z 01021G27KT 18/04 A3012 RMK A01 T01830039  RH  038%=      5-min Rain = 0
KCO2 051922Z 01017G22KT 18/04 A3012 RMK A01 T01840040  RH  038%=      5-min Rain = 0
KCO2 051923Z 02020KT 19/04 A3012 RMK A01 T01860042  RH  038%=      5-min Rain = 0
KCO2 051924Z 01017KT 18/04 A3012 RMK A01 T01820039  RH  039%=      5-min Rain = 0
KCO2 051925Z 36015G20KT 18/04 A3011 RMK A01 T01800042  RH  040%=      5-min Rain = 0
KCO2 051926Z 01019G25KT 18/04 A3012 RMK A01 T01820042  RH  040%=      5-min Rain = 0
KCO2 051927Z 02022G27KT 18/04 A3012 RMK A01 T01810040  RH  039%=      5-min Rain = 0
KCO2 051928Z 02022KT 18/04 A3012 RMK A01 T01780036  RH  039%=      5-min Rain = 0
KCO2 051929Z 02017G22KT 18/04 A3012 RMK A01 T01750036  RH  039%=      5-min Rain = 0
KCO2 051930Z 02018G23KT 18/04 A3012 RMK A01 T01750037  RH  040%=      5-min Rain = 0
KCO2 051931Z 01019KT 18/04 A3012 RMK A01 T01770040  RH  040%=      5-min Rain = 0
KCO2 051932Z 01018G30KT 18/04 A3011 RMK A01 T01790040  RH  040%=      5-min Rain = 0
KCO2 051933Z 35020G25KT 18/04 A3012 RMK A01 T01830041  RH  039%=      5-min Rain = 0
KCO2 051934Z 35020G27KT 18/04 A3011 RMK A01 T01840040  RH  039%=      5-min Rain = 0
KCO2 051935Z 35019G25KT 18/04 A3011 RMK A01 T01830041  RH  039%=      5-min Rain = 0
KCO2 051936Z 35019G24KT 18/04 A3011 RMK A01 T01830041  RH  039%=      5-min Rain = 0
KCO2 051937Z 36020KT 19/04 A3011 RMK A01 T01850040  RH  038%=      5-min Rain = 0
KCO2 051938Z 00022G28KT 18/04 A3011 RMK A01 T01830038  RH  038%=      5-min Rain = 0
KCO2 051939Z 01023KT 18/04 A3012 RMK A01 T01820037  RH  038%=      5-min Rain = 0
KCO2 051940Z 36018G23KT 18/04 A3011 RMK A01 T01780036  RH  039%=      5-min Rain = 0
KCO2 051941Z 35021G27KT 18/04 A3011 RMK A01 T01770039  RH  040%=      5-min Rain = 0
KCO2 051942Z 36016G24KT 18/04 A3011 RMK A01 T01810041  RH  040%=      5-min Rain = 0
KCO2 051943Z 00017G22KT 19/04 A3011 RMK A01 T01850041  RH  038%=      5-min Rain = 0
KCO2 051944Z 01018G24KT 19/04 A3011 RMK A01 T01870040  RH  038%=      5-min Rain = 0
KCO2 051945Z 01019G25KT 19/04 A3012 RMK A01 T01880038  RH  037%=      5-min Rain = 0
KCO2 051946Z 01023G29KT 19/04 A3012 RMK A01 T01860037  RH  037%=      5-min Rain = 0
KCO2 051947Z 01022G27KT 18/04 A3012 RMK A01 T01840037  RH  038%=      5-min Rain = 0
KCO2 051948Z 36019G25KT 18/04 A3012 RMK A01 T01830037  RH  038%=      5-min Rain = 0
KCO2 051949Z 36022G27KT 18/04 A3012 RMK A01 T01820037  RH  038%=      5-min Rain = 0
KCO2 051950Z 36021G29KT 18/04 A3012 RMK A01 T01780036  RH  039%=      5-min Rain = 0
KCO2 051951Z 01021KT 18/04 A3012 RMK A01 T01750036  RH  040%=      5-min Rain = 0
KCO2 051952Z 01025KT 17/04 A3012 RMK A01 T01730037  RH  040%=      5-min Rain = 0
KCO2 051953Z 01021KT 17/04 A3012 RMK A01 T01710038  RH  041%=      5-min Rain = 0
KCO2 051954Z 00021G26KT 17/04 A3012 RMK A01 T01700037  RH  041%=      5-min Rain = 0
KCO2 051955Z 34020G28KT 17/04 A3012 RMK A01 T01700037  RH  041%=      5-min Rain = 0
KCO2 051956Z 34018G25KT 17/04 A3012 RMK A01 T01730037  RH  040%=      5-min Rain = 0
KCO2 051957Z 35017G22KT 18/04 A3012 RMK A01 T01800040  RH  039%=      5-min Rain = 0
KCO2 051958Z 00016KT 19/04 A3012 RMK A01 T01850041  RH  038%=      5-min Rain = 0
KCO2 051959Z 00019G24KT 19/04 A3012 RMK A01 T01860038  RH  037%=      5-min Rain = 0
KCO2 052000Z 01020G27KT 18/04 A3012 RMK A01 T01830038  RH  038%=      5-min Rain = 0
KCO2 052001Z 36023KT 18/04 A3012 RMK A01 T01840040  RH  038%=      5-min Rain = 0
KCO2 052002Z 36019KT 18/04 A3012 RMK A01 T01810038  RH  038%=      5-min Rain = 0
KCO2 052003Z 35017G23KT 18/04 A3012 RMK A01 T01780038  RH  039%=      5-min Rain = 0
KCO2 052004Z 35018G25KT 18/04 A3012 RMK A01 T01780039  RH  040%=      5-min Rain = 0
KCO2 052005Z 36021KT 18/04 A3012 RMK A01 T01770039  RH  040%=      5-min Rain = 0
KCO2 052006Z 36022KT 17/04 A3013 RMK A01 T01740038  RH  041%=      5-min Rain = 0
KCO2 052007Z 36021G27KT 17/04 A3012 RMK A01 T01710038  RH  041%=      5-min Rain = 0
KCO2 052008Z 35019KT 17/04 A3012 RMK A01 T01680039  RH  042%=      5-min Rain = 0
KCO2 052009Z 35017G22KT 17/04 A3012 RMK A01 T01700040  RH  042%=      5-min Rain = 0
KCO2 052010Z 00019G24KT 17/04 A3013 RMK A01 T01690040  RH  042%=      5-min Rain = 0
KCO2 052011Z 01013KT 17/04 A3012 RMK A01 T01670040  RH  043%=      5-min Rain = 0
KCO2 052012Z 00019G24KT 17/04 A3012 RMK A01 T01660041  RH  043%=      5-min Rain = 0
KCO2 052013Z 01019G24KT 17/04 A3013 RMK A01 T01660041  RH  043%=      5-min Rain = 0
KCO2 052014Z 01018G23KT 17/04 A3013 RMK A01 T01670041  RH  043%=      5-min Rain = 0
KCO2 052015Z 00018KT 17/04 A3013 RMK A01 T01660041  RH  043%=      5-min Rain = 0
KCO2 052016Z 35020G25KT 17/04 A3013 RMK A01 T01660041  RH  043%=      5-min Rain = 0
KCO2 052017Z 35016G25KT 17/04 A3013 RMK A01 T01660041  RH  043%=      5-min Rain = 0
KCO2 052018Z 35020KT 17/04 A3013 RMK A01 T01660041  RH  043%=      5-min Rain = 0
KCO2 052019Z 35019KT 16/04 A3013 RMK A01 T01630041  RH  044%=      5-min Rain = 0
KCO2 052020Z 34018G23KT 16/04 A3012 RMK A01 T01610042  RH  045%=      5-min Rain = 0
KCO2 052021Z 34020G26KT 16/04 A3012 RMK A01 T01620042  RH  045%=      5-min Rain = 0
KCO2 052022Z 34019G26KT 16/04 A3013 RMK A01 T01620043  RH  045%=      5-min Rain = 0
KCO2 052023Z 34017KT 16/04 A3013 RMK A01 T01620044  RH  045%=      5-min Rain = 0
KCO2 052024Z 35018KT 16/04 A3013 RMK A01 T01610044  RH  046%=      5-min Rain = 0
KCO2 052025Z 35017G22KT 16/04 A3013 RMK A01 T01610044  RH  046%=      5-min Rain = 0
KCO2 052026Z 35017G22KT 16/04 A3013 RMK A01 T01630044  RH  045%=      5-min Rain = 0
KCO2 052027Z 35019KT 17/04 A3013 RMK A01 T01650044  RH  045%=      5-min Rain = 0
KCO2 052028Z 35017KT 17/04 A3013 RMK A01 T01650044  RH  045%=      5-min Rain = 0
KCO2 052029Z 36019G26KT 16/05 A3013 RMK A01 T01640045  RH  045%=      5-min Rain = 0
KCO2 052030Z 01022G27KT 16/04 A3013 RMK A01 T01640044  RH  045%=      5-min Rain = 0
KCO2 052031Z 01022KT 16/04 A3013 RMK A01 T01620044  RH  046%=      5-min Rain = 0
KCO2 052032Z 36019G24KT 16/05 A3013 RMK A01 T01610046  RH  046%=      5-min Rain = 0
KCO2 052033Z 36016G24KT 16/05 A3013 RMK A01 T01600046  RH  047%=      5-min Rain = 0
KCO2 052034Z 35021G28KT 16/05 A3013 RMK A01 T01610047  RH  047%=      5-min Rain = 0
KCO2 052035Z 35021KT 16/05 A3013 RMK A01 T01600048  RH  047%=      5-min Rain = 0
KCO2 052036Z 36017G22KT 16/05 A3014 RMK A01 T01590050  RH  048%=      5-min Rain = 0
KCO2 052037Z 35020G25KT 16/05 A3014 RMK A01 T01590051  RH  049%=      5-min Rain = 0
KCO2 052038Z 36018G26KT 16/05 A3014 RMK A01 T01590051  RH  049%=      5-min Rain = 0
KCO2 052039Z 01019KT 16/05 A3014 RMK A01 T01590052  RH  049%=      5-min Rain = 0
KCO2 052040Z 00020G25KT 16/05 A3014 RMK A01 T01590051  RH  049%=      5-min Rain = 0
KCO2 052041Z 00022KT 16/05 A3014 RMK A01 T01570049  RH  049%=      5-min Rain = 0
KCO2 052042Z 00020KT 16/05 A3014 RMK A01 T01550049  RH  049%=      5-min Rain = 0
KCO2 052043Z 36020KT 15/05 A3014 RMK A01 T01540050  RH  050%=      5-min Rain = 0
KCO2 052044Z 01017KT 15/05 A3014 RMK A01 T01540050  RH  050%=      5-min Rain = 0
KCO2 052045Z 01021G27KT 16/05 A3014 RMK A01 T01550051  RH  050%=      5-min Rain = 0
KCO2 052046Z 00022KT 16/05 A3014 RMK A01 T01550053  RH  050%=      5-min Rain = 0
KCO2 052047Z 01022G27KT 16/05 A3014 RMK A01 T01550052  RH  050%=      5-min Rain = 0
KCO2 052048Z 01021KT 16/05 A3014 RMK A01 T01550052  RH  050%=      5-min Rain = 0
KCO2 052049Z 01019G26KT 15/05 A3014 RMK A01 T01540051  RH  050%=      5-min Rain = 0
KCO2 052050Z 01021G26KT 15/05 A3014 RMK A01 T01540049  RH  049%=      5-min Rain = 0
KCO2 052051Z 01019KT 16/05 A3014 RMK A01 T01550047  RH  049%=      5-min Rain = 0
KCO2 052052Z 00018KT 16/05 A3014 RMK A01 T01570048  RH  048%=      5-min Rain = 0
KCO2 052053Z 01022KT 16/05 A3014 RMK A01 T01580048  RH  048%=      5-min Rain = 0
KCO2 052054Z 01017G24KT 16/05 A3014 RMK A01 T01570047  RH  048%=      5-min Rain = 0
KCO2 052055Z 00019G24KT 16/05 A3014 RMK A01 T01590047  RH  047%=      5-min Rain = 0
KCO2 052056Z 01021KT 16/05 A3014 RMK A01 T01590045  RH  047%=      5-min Rain = 0
KCO2 052057Z 01022KT 16/05 A3014 RMK A01 T01560045  RH  047%=      5-min Rain = 0
KCO2 052058Z 01019KT 15/04 A3014 RMK A01 T01540044  RH  048%=      5-min Rain = 0
KCO2 052059Z 00018G24KT 16/05 A3014 RMK A01 T01550045  RH  048%=      5-min Rain = 0
KCO2 052100Z 00021KT 16/04 A3015 RMK A01 T01570044  RH  047%=      5-min Rain = 0
KCO2 052101Z 00021KT 16/05 A3015 RMK A01 T01580045  RH  047%=      5-min Rain = 0
KCO2 052102Z 36015G21KT 16/05 A3015 RMK A01 T01630047  RH  046%=      5-min Rain = 0
KCO2 052103Z 01019G25KT 17/05 A3015 RMK A01 T01690047  RH  044%=      5-min Rain = 0
KCO2 052104Z 35024G31KT 17/05 A3015 RMK A01 T01700045  RH  044%=      5-min Rain = 0
KCO2 052105Z 35025KT 16/04 A3015 RMK A01 T01620041  RH  044%=      5-min Rain = 0
KCO2 052106Z 36023G29KT 16/04 A3015 RMK A01 T01560040  RH  046%=      5-min Rain = 0
KCO2 052107Z 36022G27KT 15/04 A3015 RMK A01 T01530040  RH  047%=      5-min Rain = 0
KCO2 052108Z 00018G23KT 16/04 A3015 RMK A01 T01550043  RH  047%=      5-min Rain = 0
KCO2 052109Z 36020G28KT 16/05 A3015 RMK A01 T01610045  RH  046%=      5-min Rain = 0
KCO2 052110Z 00024KT 16/04 A3015 RMK A01 T01630044  RH  045%=      5-min Rain = 0
KCO2 052111Z 35023KT 16/04 A3015 RMK A01 T01620044  RH  045%=      5-min Rain = 0
KCO2 052112Z 01023G28KT 16/05 A3015 RMK A01 T01610048  RH  047%=      5-min Rain = 0
KCO2 052113Z 36028G34KT 16/05 A3015 RMK A01 T01590051  RH  049%=      5-min Rain = 0
KCO2 052114Z 00028G33KT 16/05 A3015 RMK A01 T01560051  RH  050%=      5-min Rain = 0
KCO2 052115Z 00023G29KT 15/05 A3015 RMK A01 T01530051  RH  050%=      5-min Rain = 0
KCO2 052116Z 01024KT 15/05 A3016 RMK A01 T01510052  RH  051%=      5-min Rain = 0
KCO2 052117Z 01025G30KT 15/05 A3016 RMK A01 T01510052  RH  052%=      5-min Rain = 0
KCO2 052118Z 01024KT 15/05 A3016 RMK A01 T01500051  RH  052%=      5-min Rain = 0
KCO2 052119Z 36021G26KT 15/05 A3015 RMK A01 T01480051  RH  052%=      5-min Rain = 0
KCO2 052120Z 00024G30KT 15/05 A3016 RMK A01 T01520053  RH  052%=      5-min Rain = 0
KCO2 052121Z 01024KT 15/05 A3016 RMK A01 T01540051  RH  050%=      5-min Rain = 0
KCO2 052122Z 01020KT 15/05 A3016 RMK A01 T01540050  RH  050%=      5-min Rain = 0
KCO2 052123Z 01019G24KT 16/05 A3016 RMK A01 T01550051  RH  050%=      5-min Rain = 0
KCO2 052124Z 01022G27KT 16/05 A3016 RMK A01 T01570051  RH  049%=      5-min Rain = 0
KCO2 052125Z 01024G30KT 16/05 A3016 RMK A01 T01590050  RH  048%=      5-min Rain = 0
KCO2 052126Z 01022KT 16/05 A3016 RMK A01 T01580047  RH  048%=      5-min Rain = 0
KCO2 052127Z 01022KT 16/05 A3016 RMK A01 T01560046  RH  048%=      5-min Rain = 0
KCO2 052128Z 01021G27KT 16/05 A3016 RMK A01 T01560047  RH  048%=      5-min Rain = 0
KCO2 052129Z 01024G29KT 16/05 A3016 RMK A01 T01560046  RH  048%=      5-min Rain = 0
KCO2 052130Z 01025KT 15/04 A3016 RMK A01 T01540043  RH  048%=      5-min Rain = 0
KCO2 052131Z 00021KT 15/04 A3016 RMK A01 T01520044  RH  049%=      5-min Rain = 0
KCO2 052132Z 01024KT 15/04 A3016 RMK A01 T01530044  RH  048%=      5-min Rain = 0
KCO2 052133Z 02022G27KT 15/04 A3016 RMK A01 T01530043  RH  048%=      5-min Rain = 0
KCO2 052134Z 02022G27KT 15/04 A3016 RMK A01 T01520042  RH  048%=      5-min Rain = 0
KCO2 052135Z 00016G22KT 15/04 A3016 RMK A01 T01510043  RH  048%=      5-min Rain = 0
KCO2 052136Z 01022G31KT 15/04 A3016 RMK A01 T01520042  RH  048%=      5-min Rain = 0
KCO2 052137Z 01022G28KT 15/04 A3016 RMK A01 T01520041  RH  047%=      5-min Rain = 0
KCO2 052138Z 01021KT 15/04 A3017 RMK A01 T01530042  RH  047%=      5-min Rain = 0
KCO2 052139Z 01024G29KT 16/04 A3017 RMK A01 T01550042  RH  047%=      5-min Rain = 0
KCO2 052140Z 01027G32KT 16/04 A3017 RMK A01 T01550042  RH  047%=      5-min Rain = 0
KCO2 052141Z 00021G29KT 15/04 A3017 RMK A01 T01540043  RH  048%=      5-min Rain = 0
KCO2 052142Z 01022G27KT 15/04 A3017 RMK A01 T01540044  RH  048%=      5-min Rain = 0
KCO2 052143Z 35020G26KT 16/05 A3017 RMK A01 T01550046  RH  048%=      5-min Rain = 0
KCO2 052144Z 36021KT 16/05 A3017 RMK A01 T01590046  RH  047%=      5-min Rain = 0
KCO2 052145Z 35022G27KT 16/05 A3017 RMK A01 T01580045  RH  047%=      5-min Rain = 0
KCO2 052146Z 36021G26KT 16/05 A3016 RMK A01 T01580045  RH  047%=      5-min Rain = 0
KCO2 052147Z 01025G32KT 16/05 A3017 RMK A01 T01610047  RH  047%=      5-min Rain = 0
KCO2 052148Z 02026KT 16/05 A3017 RMK A01 T01590045  RH  047%=      5-min Rain = 0
KCO2 052149Z 01021G26KT 16/05 A3017 RMK A01 T01560045  RH  048%=      5-min Rain = 0
KCO2 052150Z 02024KT 15/04 A3017 RMK A01 T01530044  RH  048%=      5-min Rain = 0
KCO2 052151Z 01019G27KT 15/04 A3017 RMK A01 T01500044  RH  049%=      5-min Rain = 0
KCO2 052152Z 01024G31KT 15/05 A3017 RMK A01 T01520045  RH  049%=      5-min Rain = 0
KCO2 052153Z 01022G27KT 15/04 A3017 RMK A01 T01530044  RH  048%=      5-min Rain = 0
KCO2 052154Z 02023KT 15/04 A3017 RMK A01 T01540042  RH  047%=      5-min Rain = 0
KCO2 052155Z 02021G27KT 16/04 A3017 RMK A01 T01550042  RH  047%=      5-min Rain = 0
KCO2 052156Z 01019G24KT 16/04 A3017 RMK A01 T01570043  RH  047%=      5-min Rain = 0
KCO2 052157Z 01020KT 16/04 A3017 RMK A01 T01610043  RH  046%=      5-min Rain = 0
KCO2 052158Z 36022G27KT 16/04 A3017 RMK A01 T01610041  RH  045%=      5-min Rain = 0
KCO2 052159Z 01025KT 16/03 A3017 RMK A01 T01580032  RH  043%=      5-min Rain = 0
KCO2 052200Z 01026G31KT 15/03 A3018 RMK A01 T01520031  RH  044%=      5-min Rain = 0
KCO2 052201Z 01026G32KT 15/03 A3018 RMK A01 T01480032  RH  046%=      5-min Rain = 0
KCO2 052202Z 36022G28KT 15/03 A3017 RMK A01 T01450032  RH  047%=      5-min Rain = 0
KCO2 052203Z 01017KT 15/04 A3017 RMK A01 T01460035  RH  047%=      5-min Rain = 0
KCO2 052204Z 36016KT 15/04 A3017 RMK A01 T01520038  RH  046%=      5-min Rain = 0
KCO2 052205Z 00019KT 16/04 A3017 RMK A01 T01580038  RH  045%=      5-min Rain = 0
KCO2 052206Z 01020G27KT 16/04 A3017 RMK A01 T01600037  RH  044%=      5-min Rain = 0
KCO2 052207Z 01024G29KT 16/04 A3018 RMK A01 T01580037  RH  044%=      5-min Rain = 0
KCO2 052208Z 01023KT 16/04 A3018 RMK A01 T01550038  RH  045%=      5-min Rain = 0
KCO2 052209Z 01022KT 15/04 A3017 RMK A01 T01530040  RH  047%=      5-min Rain = 0
KCO2 052210Z 01018KT 15/04 A3018 RMK A01 T01530040  RH  047%=      5-min Rain = 0
KCO2 052211Z 02021G26KT 15/04 A3018 RMK A01 T01530038  RH  046%=      5-min Rain = 0
KCO2 052212Z 02023KT 15/04 A3018 RMK A01 T01520037  RH  046%=      5-min Rain = 0
KCO2 052213Z 01022KT 15/04 A3018 RMK A01 T01530037  RH  046%=      5-min Rain = 0
KCO2 052214Z 01020G26KT 15/04 A3018 RMK A01 T01520036  RH  046%=      5-min Rain = 0
KCO2 052215Z 02023KT 15/04 A3018 RMK A01 T01520036  RH  046%=      5-min Rain = 0
KCO2 052216Z 01021KT 15/04 A3018 RMK A01 T01510035  RH  046%=      5-min Rain = 0
KCO2 052217Z 01021KT 15/04 A3018 RMK A01 T01500036  RH  046%=      5-min Rain = 0
KCO2 052218Z 01020KT 15/04 A3018 RMK A01 T01500036  RH  046%=      5-min Rain = 0
KCO2 052219Z 36018G23KT 15/04 A3018 RMK A01 T01510036  RH  046%=      5-min Rain = 0
KCO2 052220Z 00020KT 15/04 A3018 RMK A01 T01530038  RH  046%=      5-min Rain = 0
KCO2 052221Z 01015KT 15/04 A3018 RMK A01 T01530037  RH  046%=      5-min Rain = 0
KCO2 052222Z 02017KT 15/04 A3018 RMK A01 T01540037  RH  046%=      5-min Rain = 0
KCO2 052223Z 01016G21KT 15/04 A3018 RMK A01 T01530035  RH  045%=      5-min Rain = 0
KCO2 052224Z 00018G23KT 15/04 A3018 RMK A01 T01520035  RH  045%=      5-min Rain = 0
KCO2 052225Z 35020G26KT 15/03 A3018 RMK A01 T01510034  RH  045%=      5-min Rain = 0
KCO2 052226Z 36017KT 15/03 A3018 RMK A01 T01500033  RH  046%=      5-min Rain = 0
KCO2 052227Z 00022KT 15/03 A3019 RMK A01 T01500034  RH  046%=      5-min Rain = 0
KCO2 052228Z 36019KT 15/03 A3019 RMK A01 T01490034  RH  046%=      5-min Rain = 0
KCO2 052229Z 00017G24KT 15/03 A3019 RMK A01 T01480034  RH  046%=      5-min Rain = 0
KCO2 052230Z 36023KT 15/03 A3019 RMK A01 T01470033  RH  046%=      5-min Rain = 0
KCO2 052231Z 36023KT 15/03 A3019 RMK A01 T01450032  RH  047%=      5-min Rain = 0
KCO2 052232Z 35019KT 14/03 A3019 RMK A01 T01440032  RH  047%=      5-min Rain = 0
KCO2 052233Z 36019KT 14/03 A3019 RMK A01 T01440033  RH  047%=      5-min Rain = 0
KCO2 052234Z 00016KT 15/03 A3019 RMK A01 T01450034  RH  047%=      5-min Rain = 0
KCO2 052235Z 00017G22KT 15/03 A3019 RMK A01 T01450034  RH  047%=      5-min Rain = 0
KCO2 052236Z 00022KT 15/03 A3019 RMK A01 T01450034  RH  047%=      5-min Rain = 0
KCO2 052237Z 36016G21KT 14/03 A3019 RMK A01 T01430034  RH  048%=      5-min Rain = 0
KCO2 052238Z 35018G23KT 14/03 A3019 RMK A01 T01430034  RH  048%=      5-min Rain = 0
KCO2 052239Z 00022KT 14/03 A3019 RMK A01 T01420034  RH  048%=      5-min Rain = 0
KCO2 052240Z 00023KT 14/03 A3019 RMK A01 T01410034  RH  048%=      5-min Rain = 0
KCO2 052241Z 00022KT 14/03 A3019 RMK A01 T01400033  RH  048%=      5-min Rain = 0
KCO2 052242Z 36020G25KT 14/03 A3019 RMK A01 T01390031  RH  048%=      5-min Rain = 0
KCO2 052243Z 01022KT 14/03 A3019 RMK A01 T01390031  RH  048%=      5-min Rain = 0
KCO2 052244Z 35022KT 14/03 A3019 RMK A01 T01390033  RH  049%=      5-min Rain = 0
KCO2 052245Z 00022KT 14/03 A3019 RMK A01 T01380033  RH  049%=      5-min Rain = 0
KCO2 052246Z 36020G25KT 14/03 A3019 RMK A01 T01380033  RH  049%=      5-min Rain = 0
KCO2 052247Z 36016G22KT 14/03 A3019 RMK A01 T01390034  RH  049%=      5-min Rain = 0
KCO2 052248Z 00013G20KT 14/04 A3019 RMK A01 T01400035  RH  049%=      5-min Rain = 0
KCO2 052249Z 36015KT 14/04 A3019 RMK A01 T01420035  RH  049%=      5-min Rain = 0
KCO2 052250Z 35017KT 14/04 A3019 RMK A01 T01420035  RH  048%=      5-min Rain = 0
KCO2 052251Z 35019KT 14/03 A3019 RMK A01 T01410033  RH  048%=      5-min Rain = 0
KCO2 052252Z 35021G26KT 14/03 A3019 RMK A01 T01400032  RH  048%=      5-min Rain = 0
KCO2 052253Z 00019G25KT 14/03 A3019 RMK A01 T01390031  RH  048%=      5-min Rain = 0
KCO2 052254Z 36020KT 14/03 A3019 RMK A01 T01390031  RH  048%=      5-min Rain = 0
KCO2 052255Z 00022G27KT 14/03 A302 RMK A01 T01380031  RH  048%=      5-min Rain = 0
KCO2 052256Z 01023KT 14/03 A302 RMK A01 T01370030  RH  049%=      5-min Rain = 0
KCO2 052257Z 01021KT 14/03 A302 RMK A01 T01360031  RH  049%=      5-min Rain = 0
KCO2 052258Z 01022KT 14/03 A302 RMK A01 T01360032  RH  049%=      5-min Rain = 0
KCO2 052259Z 01018KT 14/03 A302 RMK A01 T01360032  RH  049%=      5-min Rain = 0
KCO2 052300Z 01017KT 14/03 A302 RMK A01 T01360032  RH  049%=      5-min Rain = 0
KCO2 052301Z 01017G22KT 14/03 A302 RMK A01 T01370031  RH  049%=      5-min Rain = 0
KCO2 052302Z 01020KT 14/03 A302 RMK A01 T01370030  RH  048%=      5-min Rain = 0
KCO2 052303Z 01020KT 14/03 A302 RMK A01 T01370029  RH  048%=      5-min Rain = 0
KCO2 052304Z 00017G26KT 14/03 A302 RMK A01 T01380029  RH  047%=      5-min Rain = 0
KCO2 052305Z 36022G27KT 14/03 A302 RMK A01 T01410029  RH  047%=      5-min Rain = 0
KCO2 052306Z 35019G25KT 14/03 A302 RMK A01 T01420029  RH  046%=      5-min Rain = 0
KCO2 052307Z 35022KT 14/03 A3019 RMK A01 T01430029  RH  046%=      5-min Rain = 0
KCO2 052308Z 00019G24KT 14/03 A302 RMK A01 T01440030  RH  046%=      5-min Rain = 0
KCO2 052309Z 35018G24KT 15/03 A302 RMK A01 T01450031  RH  046%=      5-min Rain = 0
KCO2 052310Z 01016KT 15/03 A302 RMK A01 T01460032  RH  046%=      5-min Rain = 0
KCO2 052311Z 00021KT 15/03 A302 RMK A01 T01490032  RH  045%=      5-min Rain = 0
KCO2 052312Z 36019G24KT 15/03 A302 RMK A01 T01480031  RH  045%=      5-min Rain = 0
KCO2 052313Z 01019KT 15/03 A302 RMK A01 T01470031  RH  046%=      5-min Rain = 0
KCO2 052314Z 01021KT 15/03 A302 RMK A01 T01470031  RH  046%=      5-min Rain = 0
KCO2 052315Z 00019KT 15/03 A302 RMK A01 T01450031  RH  046%=      5-min Rain = 0
KCO2 052316Z 36017G22KT 14/03 A302 RMK A01 T01440031  RH  047%=      5-min Rain = 0
KCO2 052317Z 00019KT 15/03 A302 RMK A01 T01450031  RH  046%=      5-min Rain = 0
KCO2 052318Z 00020KT 15/03 A302 RMK A01 T01460031  RH  046%=      5-min Rain = 0
KCO2 052319Z 01017G22KT 15/03 A302 RMK A01 T01450031  RH  046%=      5-min Rain = 0
KCO2 052320Z 01019KT 14/03 A302 RMK A01 T01430031  RH  047%=      5-min Rain = 0
KCO2 052321Z 00015KT 14/03 A302 RMK A01 T01420031  RH  047%=      5-min Rain = 0
KCO2 052322Z 35016KT 14/03 A302 RMK A01 T01410032  RH  048%=      5-min Rain = 0
KCO2 052323Z 00015KT 14/03 A302 RMK A01 T01410031  RH  048%=      5-min Rain = 0
KCO2 052324Z 01022G27KT 14/03 A302 RMK A01 T01400031  RH  048%=      5-min Rain = 0
KCO2 052325Z 00022KT 14/03 A302 RMK A01 T01390029  RH  048%=      5-min Rain = 0
KCO2 052326Z 01021G26KT 14/03 A302 RMK A01 T01380029  RH  048%=      5-min Rain = 0
KCO2 052327Z 01015G20KT 14/03 A302 RMK A01 T01370030  RH  048%=      5-min Rain = 0
KCO2 052328Z 01020KT 14/03 A302 RMK A01 T01370029  RH  048%=      5-min Rain = 0
KCO2 052329Z 01020KT 14/03 A302 RMK A01 T01360029  RH  048%=      5-min Rain = 0
KCO2 052330Z 01019KT 14/03 A302 RMK A01 T01350029  RH  049%=      5-min Rain = 0
KCO2 052331Z 01022G28KT 13/03 A3021 RMK A01 T01340029  RH  049%=      5-min Rain = 0
KCO2 052332Z 02019G24KT 13/03 A3021 RMK A01 T01340028  RH  049%=      5-min Rain = 0
KCO2 052333Z 01016KT 13/03 A3021 RMK A01 T01340029  RH  049%=      5-min Rain = 0
KCO2 052334Z 00018G23KT 13/03 A3021 RMK A01 T01340029  RH  049%=      5-min Rain = 0
KCO2 052335Z 00019KT 13/03 A3021 RMK A01 T01340030  RH  049%=      5-min Rain = 0
KCO2 052336Z 00018KT 13/03 A3021 RMK A01 T01340030  RH  050%=      5-min Rain = 0
KCO2 052337Z 01015KT 13/03 A3021 RMK A01 T01340031  RH  050%=      5-min Rain = 0
KCO2 052338Z 01013KT 13/03 A3021 RMK A01 T01340031  RH  050%=      5-min Rain = 0
KCO2 052339Z 01020KT 13/03 A3021 RMK A01 T01340031  RH  050%=      5-min Rain = 0
KCO2 052340Z 01020KT 13/03 A3021 RMK A01 T01340031  RH  050%=      5-min Rain = 0
KCO2 052341Z 02016KT 13/03 A3021 RMK A01 T01340032  RH  050%=      5-min Rain = 0
KCO2 052342Z 01016G21KT 13/03 A3021 RMK A01 T01340032  RH  050%=      5-min Rain = 0
KCO2 052343Z 01019KT 13/03 A3021 RMK A01 T01340033  RH  050%=      5-min Rain = 0
KCO2 052344Z 01017KT 13/03 A3021 RMK A01 T01340032  RH  050%=      5-min Rain = 0
KCO2 052345Z 01019G24KT 13/03 A3022 RMK A01 T01340032  RH  050%=      5-min Rain = 0
KCO2 052346Z 01017KT 13/03 A3021 RMK A01 T01340033  RH  050%=      5-min Rain = 0
KCO2 052347Z 01015KT 13/03 A3021 RMK A01 T01340033  RH  050%=      5-min Rain = 0
KCO2 052348Z 01014KT 13/03 A3021 RMK A01 T01340033  RH  050%=      5-min Rain = 0
KCO2 052349Z 01018KT 14/03 A3022 RMK A01 T01350033  RH  050%=      5-min Rain = 0
KCO2 052350Z 02013KT 13/03 A3022 RMK A01 T01340033  RH  050%=      5-min Rain = 0
KCO2 052351Z 02019G25KT 13/03 A3022 RMK A01 T01340033  RH  050%=      5-min Rain = 0
KCO2 052352Z 02019KT 13/03 A3022 RMK A01 T01340033  RH  050%=      5-min Rain = 0
KCO2 052353Z 01020KT 13/03 A3022 RMK A01 T01330033  RH  051%=      5-min Rain = 0
KCO2 052354Z 02019KT 13/03 A3022 RMK A01 T01330033  RH  051%=      5-min Rain = 0
KCO2 052355Z 02016KT 13/03 A3022 RMK A01 T01320033  RH  051%=      5-min Rain = 0
KCO2 052356Z 01015KT 13/03 A3022 RMK A01 T01320033  RH  051%=      5-min Rain = 0
KCO2 052357Z 02014KT 13/03 A3022 RMK A01 T01320034  RH  051%=      5-min Rain = 0
KCO2 052358Z 01016G21KT 13/03 A3022 RMK A01 T01320034  RH  051%=      5-min Rain = 0
KCO2 052359Z 01015KT 13/03 A3022 RMK A01 T01320034  RH  051%=      5-min Rain = 0
KCO2 060000Z 01018KT 13/03 A3022 RMK A01 T01320034  RH  051%=      5-min Rain = 0
KCO2 060001Z 01016G21KT 13/03 A3023 RMK A01 T01320034  RH  051%=      5-min Rain = 0
KCO2 060002Z 00015KT 13/03 A3023 RMK A01 T01320033  RH  051%=      5-min Rain = 0
KCO2 060003Z 36013KT 13/03 A3023 RMK A01 T01310033  RH  051%=      5-min Rain = 0
KCO2 060004Z 01012KT 13/03 A3023 RMK A01 T01310034  RH  051%=      5-min Rain = 0
KCO2 060005Z 01013KT 13/03 A3023 RMK A01 T01310034  RH  052%=      5-min Rain = 0
KCO2 060006Z 01015KT 13/03 A3023 RMK A01 T01310034  RH  052%=      5-min Rain = 0
KCO2 060007Z 00013KT 13/03 A3023 RMK A01 T01310034  RH  052%=      5-min Rain = 0
KCO2 060008Z 00016KT 13/03 A3023 RMK A01 T01310034  RH  052%=      5-min Rain = 0
KCO2 060009Z 01017KT 13/03 A3023 RMK A01 T01310034  RH  052%=      5-min Rain = 0
KCO2 060010Z 00013KT 13/03 A3023 RMK A01 T01310034  RH  052%=      5-min Rain = 0
KCO2 060011Z 01013KT 13/04 A3023 RMK A01 T01310035  RH  052%=      5-min Rain = 0
KCO2 060012Z 01013KT 13/04 A3023 RMK A01 T01310035  RH  052%=      5-min Rain = 0
KCO2 060013Z 01014KT 13/04 A3023 RMK A01 T01310035  RH  052%=      5-min Rain = 0
KCO2 060014Z 01016KT 13/04 A3023 RMK A01 T01310035  RH  052%=      5-min Rain = 0
KCO2 060015Z 01017KT 13/03 A3023 RMK A01 T01310034  RH  052%=      5-min Rain = 0
KCO2 060016Z 02016KT 13/03 A3023 RMK A01 T01300034  RH  052%=      5-min Rain = 0
KCO2 060017Z 02017KT 13/03 A3023 RMK A01 T01300033  RH  052%=      5-min Rain = 0
KCO2 060018Z 01014KT 13/03 A3023 RMK A01 T01300034  RH  052%=      5-min Rain = 0
KCO2 060019Z 01014KT 13/03 A3023 RMK A01 T01300034  RH  052%=      5-min Rain = 0
KCO2 060020Z 01018G23KT 13/03 A3023 RMK A01 T01300034  RH  052%=      5-min Rain = 0
KCO2 060021Z 01014G19KT 13/03 A3023 RMK A01 T01300034  RH  052%=      5-min Rain = 0
KCO2 060022Z 01016KT 13/03 A3024 RMK A01 T01290034  RH  052%=      5-min Rain = 0
KCO2 060023Z 01017KT 13/03 A3023 RMK A01 T01290034  RH  052%=      5-min Rain = 0
KCO2 060024Z 01019KT 13/04 A3024 RMK A01 T01290035  RH  053%=      5-min Rain = 0
KCO2 060025Z 01016KT 13/04 A3024 RMK A01 T01290035  RH  053%=      5-min Rain = 0
KCO2 060026Z 02018G23KT 13/04 A3024 RMK A01 T01290035  RH  053%=      5-min Rain = 0
KCO2 060027Z 02018KT 13/04 A3024 RMK A01 T01290035  RH  053%=      5-min Rain = 0
KCO2 060028Z 02019KT 13/04 A3024 RMK A01 T01280035  RH  053%=      5-min Rain = 0
KCO2 060029Z 01016KT 13/04 A3024 RMK A01 T01280035  RH  053%=      5-min Rain = 0
KCO2 060030Z 01015KT 13/04 A3024 RMK A01 T01290035  RH  053%=      5-min Rain = 0
KCO2 060031Z 01015G21KT 13/04 A3024 RMK A01 T01290036  RH  053%=      5-min Rain = 0
KCO2 060032Z 02015KT 13/04 A3024 RMK A01 T01280035  RH  053%=      5-min Rain = 0
KCO2 060033Z 01017KT 13/04 A3024 RMK A01 T01280036  RH  053%=      5-min Rain = 0
KCO2 060034Z 01016G21KT 13/04 A3024 RMK A01 T01280036  RH  053%=      5-min Rain = 0
KCO2 060035Z 01019KT 13/04 A3024 RMK A01 T01280036  RH  054%=      5-min Rain = 0
KCO2 060036Z 02020KT 13/04 A3024 RMK A01 T01280036  RH  054%=      5-min Rain = 0
KCO2 060037Z 01017KT 13/04 A3024 RMK A01 T01280037  RH  054%=      5-min Rain = 0
KCO2 060038Z 01015G21KT 13/04 A3024 RMK A01 T01280036  RH  054%=      5-min Rain = 0
KCO2 060039Z 01017KT 13/04 A3024 RMK A01 T01270036  RH  054%=      5-min Rain = 0
KCO2 060040Z 01017G23KT 13/04 A3025 RMK A01 T01270037  RH  054%=      5-min Rain = 0
KCO2 060041Z 02017KT 13/04 A3025 RMK A01 T01270037  RH  054%=      5-min Rain = 0
KCO2 060042Z 02016KT 13/04 A3025 RMK A01 T01270037  RH  054%=      5-min Rain = 0
KCO2 060043Z 01015KT 13/04 A3025 RMK A01 T01270037  RH  054%=      5-min Rain = 0
KCO2 060044Z 01015G20KT 13/04 A3025 RMK A01 T01270037  RH  054%=      5-min Rain = 0
KCO2 060045Z 01016KT 13/04 A3025 RMK A01 T01270037  RH  054%=      5-min Rain = 0
KCO2 060046Z 01012KT 13/04 A3025 RMK A01 T01260037  RH  054%=      5-min Rain = 0
KCO2 060047Z 01013KT 13/04 A3025 RMK A01 T01260037  RH  054%=      5-min Rain = 0
KCO2 060048Z 02014KT 13/04 A3025 RMK A01 T01260037  RH  055%=      5-min Rain = 0
KCO2 060049Z 02013KT 13/04 A3025 RMK A01 T01260037  RH  055%=      5-min Rain = 0
KCO2 060050Z 02015KT 13/04 A3025 RMK A01 T01260037  RH  055%=      5-min Rain = 0
KCO2 060051Z 02016KT 13/04 A3025 RMK A01 T01250037  RH  055%=      5-min Rain = 0
KCO2 060052Z 01013KT 13/04 A3025 RMK A01 T01250037  RH  055%=      5-min Rain = 0
KCO2 060053Z 01016KT 13/04 A3025 RMK A01 T01250037  RH  055%=      5-min Rain = 0
KCO2 060054Z 01011KT 13/04 A3025 RMK A01 T01250037  RH  055%=      5-min Rain = 0
KCO2 060055Z 01015G21KT 13/04 A3025 RMK A01 T01250036  RH  055%=      5-min Rain = 0
KCO2 060056Z 01018KT 13/04 A3025 RMK A01 T01250036  RH  055%=      5-min Rain = 0
KCO2 060057Z 01020G25KT 12/04 A3025 RMK A01 T01240036  RH  055%=      5-min Rain = 0
KCO2 060058Z 01017KT 12/04 A3025 RMK A01 T01240036  RH  055%=      5-min Rain = 0
KCO2 060059Z 02016KT 12/04 A3025 RMK A01 T01240036  RH  055%=      5-min Rain = 0
KCO2 060100Z 01015KT 12/04 A3025 RMK A01 T01230036  RH  055%=      5-min Rain = 0
KCO2 060101Z 02018KT 12/04 A3025 RMK A01 T01240036  RH  055%=      5-min Rain = 0
KCO2 060102Z 01018KT 12/04 A3025 RMK A01 T01240037  RH  055%=      5-min Rain = 0
KCO2 060103Z 02015KT 12/04 A3025 RMK A01 T01230037  RH  055%=      5-min Rain = 0
KCO2 060104Z 02017KT 12/04 A3025 RMK A01 T01230037  RH  056%=      5-min Rain = 0
KCO2 060105Z 01017KT 12/04 A3025 RMK A01 T01230037  RH  056%=      5-min Rain = 0
KCO2 060106Z 01019KT 12/04 A3025 RMK A01 T01230037  RH  056%=      5-min Rain = 0
KCO2 060107Z 01015KT 12/04 A3025 RMK A01 T01230037  RH  056%=      5-min Rain = 0
KCO2 060108Z 02014KT 12/04 A3025 RMK A01 T01230037  RH  056%=      5-min Rain = 0
KCO2 060109Z 01014KT 12/04 A3025 RMK A01 T01230037  RH  056%=      5-min Rain = 0
KCO2 060110Z 01016KT 12/04 A3025 RMK A01 T01230037  RH  056%=      5-min Rain = 0
KCO2 060111Z 01014KT 12/04 A3025 RMK A01 T01230037  RH  056%=      5-min Rain = 0
KCO2 060112Z 01017KT 12/04 A3026 RMK A01 T01230037  RH  056%=      5-min Rain = 0
KCO2 060113Z 01015KT 12/04 A3026 RMK A01 T01230037  RH  056%=      5-min Rain = 0
KCO2 060114Z 01011KT 12/04 A3026 RMK A01 T01230037  RH  056%=      5-min Rain = 0
KCO2 060115Z 00013G18KT 12/04 A3026 RMK A01 T01220037  RH  056%=      5-min Rain = 0
KCO2 060116Z 01014KT 12/04 A3026 RMK A01 T01220037  RH  056%=      5-min Rain = 0
KCO2 060117Z 01013KT 12/04 A3026 RMK A01 T01220037  RH  056%=      5-min Rain = 0
KCO2 060118Z 01014KT 12/04 A3026 RMK A01 T01220037  RH  056%=      5-min Rain = 0
KCO2 060119Z 01015KT 12/04 A3026 RMK A01 T01220037  RH  056%=      5-min Rain = 0
KCO2 060120Z 01012KT 12/04 A3026 RMK A01 T01220037  RH  056%=      5-min Rain = 0
KCO2 060121Z 02011KT 12/04 A3026 RMK A01 T01220038  RH  056%=      5-min Rain = 0
KCO2 060122Z 01013KT 12/04 A3026 RMK A01 T01210037  RH  056%=      5-min Rain = 0
KCO2 060123Z 01011KT 12/04 A3026 RMK A01 T01220038  RH  056%=      5-min Rain = 0
KCO2 060124Z 01013KT 12/04 A3026 RMK A01 T01220038  RH  057%=      5-min Rain = 0
KCO2 060125Z 01012KT 12/04 A3026 RMK A01 T01210038  RH  057%=      5-min Rain = 0
KCO2 060126Z 01012KT 12/04 A3026 RMK A01 T01210038  RH  057%=      5-min Rain = 0
KCO2 060127Z 01012KT 12/04 A3026 RMK A01 T01210038  RH  057%=      5-min Rain = 0
KCO2 060128Z 01011KT 12/04 A3026 RMK A01 T01210038  RH  057%=      5-min Rain = 0
KCO2 060129Z 02012KT 12/04 A3026 RMK A01 T01210038  RH  057%=      5-min Rain = 0
KCO2 060130Z 02011KT 12/04 A3026 RMK A01 T01210038  RH  057%=      5-min Rain = 0
KCO2 060131Z 01012G18KT 12/04 A3026 RMK A01 T01210038  RH  057%=      5-min Rain = 0
KCO2 060132Z 01013KT 12/04 A3026 RMK A01 T01210038  RH  057%=      5-min Rain = 0
KCO2 060133Z 01013KT 12/04 A3026 RMK A01 T01210038  RH  057%=      5-min Rain = 0
KCO2 060134Z 01012KT 12/04 A3026 RMK A01 T01210039  RH  057%=      5-min Rain = 0
KCO2 060135Z 01008KT 12/04 A3026 RMK A01 T01210039  RH  057%=      5-min Rain = 0
KCO2 060136Z 01008KT 12/04 A3026 RMK A01 T01200038  RH  057%=      5-min Rain = 0
KCO2 060137Z 01008KT 12/04 A3026 RMK A01 T01210039  RH  057%=      5-min Rain = 0
KCO2 060138Z 00008KT 12/04 A3026 RMK A01 T01200038  RH  057%=      5-min Rain = 0
KCO2 060139Z 01011KT 12/04 A3026 RMK A01 T01200038  RH  057%=      5-min Rain = 0
KCO2 060140Z 00013KT 12/04 A3026 RMK A01 T01200038  RH  057%=      5-min Rain = 0
KCO2 060141Z 00013KT 12/04 A3026 RMK A01 T01200039  RH  057%=      5-min Rain = 0
KCO2 060142Z 00013KT 12/04 A3026 RMK A01 T01200038  RH  057%=      5-min Rain = 0
KCO2 060143Z 01011KT 12/04 A3026 RMK A01 T01200038  RH  057%=      5-min Rain = 0
KCO2 060144Z 00015KT 12/04 A3026 RMK A01 T01190038  RH  058%=      5-min Rain = 0
KCO2 060145Z 01012KT 12/04 A3026 RMK A01 T01190039  RH  058%=      5-min Rain = 0
KCO2 060146Z 00012KT 12/04 A3026 RMK A01 T01190039  RH  058%=      5-min Rain = 0
KCO2 060147Z 01011G16KT 12/04 A3026 RMK A01 T01190039  RH  058%=      5-min Rain = 0
KCO2 060148Z 01014KT 12/04 A3026 RMK A01 T01190039  RH  058%=      5-min Rain = 0
KCO2 060149Z 01016KT 12/04 A3027 RMK A01 T01190039  RH  058%=      5-min Rain = 0
KCO2 060150Z 00016G21KT 12/04 A3026 RMK A01 T01190039  RH  058%=      5-min Rain = 0
KCO2 060151Z 00013KT 12/04 A3026 RMK A01 T01190039  RH  058%=      5-min Rain = 0
KCO2 060152Z 01012KT 12/04 A3027 RMK A01 T01190039  RH  058%=      5-min Rain = 0
KCO2 060153Z 01013G19KT 12/04 A3027 RMK A01 T01190039  RH  058%=      5-min Rain = 0
KCO2 060154Z 01017KT 12/04 A3027 RMK A01 T01190040  RH  058%=      5-min Rain = 0
KCO2 060155Z 00014KT 12/04 A3027 RMK A01 T01190040  RH  058%=      5-min Rain = 0
KCO2 060156Z 01011G16KT 12/04 A3027 RMK A01 T01180040  RH  058%=      5-min Rain = 0
KCO2 060157Z 36013KT 12/04 A3027 RMK A01 T01180039  RH  059%=      5-min Rain = 0
KCO2 060158Z 01014KT 12/04 A3027 RMK A01 T01180040  RH  059%=      5-min Rain = 0
KCO2 060159Z 01013KT 12/04 A3027 RMK A01 T01180040  RH  059%=      5-min Rain = 0
KCO2 060200Z 01010KT 12/04 A3027 RMK A01 T01170039  RH  059%=      5-min Rain = 0
KCO2 060201Z 01012KT 12/04 A3027 RMK A01 T01170040  RH  059%=      5-min Rain = 0
KCO2 060202Z 01013G18KT 12/04 A3027 RMK A01 T01160040  RH  059%=      5-min Rain = 0
KCO2 060203Z 01014KT 12/04 A3027 RMK A01 T01160040  RH  060%=      5-min Rain = 0
KCO2 060204Z 01013KT 12/04 A3027 RMK A01 T01170041  RH  060%=      5-min Rain = 0
KCO2 060205Z 01014KT 12/04 A3027 RMK A01 T01160041  RH  060%=      5-min Rain = 0
KCO2 060206Z 01013KT 12/04 A3027 RMK A01 T01160041  RH  060%=      5-min Rain = 0
KCO2 060207Z 00014KT 12/04 A3027 RMK A01 T01160040  RH  060%=      5-min Rain = 0
KCO2 060208Z 01011KT 12/04 A3027 RMK A01 T01150040  RH  060%=      5-min Rain = 0
KCO2 060209Z 01011KT 11/04 A3027 RMK A01 T01140040  RH  060%=      5-min Rain = 0
KCO2 060210Z 00013KT 11/04 A3027 RMK A01 T01130040  RH  060%=      5-min Rain = 0
KCO2 060211Z 01014G19KT 11/04 A3027 RMK A01 T01130040  RH  061%=      5-min Rain = 0
KCO2 060212Z 01011KT 11/04 A3027 RMK A01 T01130040  RH  061%=      5-min Rain = 0
KCO2 060213Z 01013KT 11/04 A3028 RMK A01 T01120040  RH  061%=      5-min Rain = 0
KCO2 060214Z 01014KT 11/04 A3028 RMK A01 T01120040  RH  061%=      5-min Rain = 0
KCO2 060215Z 00013KT 11/04 A3028 RMK A01 T01120041  RH  062%=      5-min Rain = 0
KCO2 060216Z 01011KT 11/04 A3028 RMK A01 T01120040  RH  061%=      5-min Rain = 0
KCO2 060217Z 01011KT 11/04 A3028 RMK A01 T01120040  RH  061%=      5-min Rain = 0
KCO2 060218Z 01010KT 11/04 A3028 RMK A01 T01120041  RH  062%=      5-min Rain = 0
KCO2 060219Z 01011KT 11/04 A3028 RMK A01 T01120041  RH  062%=      5-min Rain = 0
KCO2 060220Z 01010KT 11/04 A3028 RMK A01 T01120041  RH  062%=      5-min Rain = 0
KCO2 060221Z 36009KT 11/04 A3028 RMK A01 T01110041  RH  062%=      5-min Rain = 0
KCO2 060222Z 36008KT 11/04 A3028 RMK A01 T01110041  RH  062%=      5-min Rain = 0
KCO2 060223Z 00008KT 11/04 A3028 RMK A01 T01110040  RH  062%=      5-min Rain = 0
KCO2 060224Z 00007KT 11/04 A3028 RMK A01 T01100040  RH  062%=      5-min Rain = 0
KCO2 060225Z 00010KT 11/04 A3028 RMK A01 T01100040  RH  062%=      5-min Rain = 0
KCO2 060226Z 01009KT 11/04 A3028 RMK A01 T01090040  RH  062%=      5-min Rain = 0
KCO2 060227Z 01008KT 11/04 A3028 RMK A01 T01090040  RH  062%=      5-min Rain = 0
KCO2 060228Z 00009KT 11/04 A3028 RMK A01 T01090040  RH  062%=      5-min Rain = 0
KCO2 060229Z 00008KT 11/04 A3028 RMK A01 T01080040  RH  063%=      5-min Rain = 0
KCO2 060230Z 00008KT 11/04 A3028 RMK A01 T01080039  RH  063%=      5-min Rain = 0
KCO2 060231Z 00007KT 11/04 A3028 RMK A01 T01070039  RH  063%=      5-min Rain = 0
KCO2 060232Z 00007KT 11/04 A3028 RMK A01 T01070039  RH  063%=      5-min Rain = 0
KCO2 060233Z 01007KT 11/04 A3028 RMK A01 T01060039  RH  063%=      5-min Rain = 0
KCO2 060234Z 01008KT 11/04 A3028 RMK A01 T01060039  RH  063%=      5-min Rain = 0
KCO2 060235Z 01008KT 11/04 A3028 RMK A01 T01060040  RH  064%=      5-min Rain = 0
KCO2 060236Z 01008KT 11/04 A3028 RMK A01 T01060040  RH  064%=      5-min Rain = 0
KCO2 060237Z 00007KT 11/04 A3028 RMK A01 T01060040  RH  064%=      5-min Rain = 0
KCO2 060238Z 00006KT 11/04 A3028 RMK A01 T01050039  RH  064%=      5-min Rain = 0
KCO2 060239Z 00006KT 11/04 A3028 RMK A01 T01050039  RH  064%=      5-min Rain = 0
KCO2 060240Z 01008KT 10/04 A3028 RMK A01 T01040039  RH  064%=      5-min Rain = 0
KCO2 060241Z 00008KT 10/04 A3028 RMK A01 T01030039  RH  064%=      5-min Rain = 0
KCO2 060242Z 00007KT 10/04 A3028 RMK A01 T01030039  RH  064%=      5-min Rain = 0
KCO2 060243Z 00007KT 10/04 A3028 RMK A01 T01030039  RH  064%=      5-min Rain = 0
KCO2 060244Z 00007KT 10/04 A3028 RMK A01 T01020038  RH  065%=      5-min Rain = 0
KCO2 060245Z 00007KT 10/04 A3028 RMK A01 T01010038  RH  065%=      5-min Rain = 0
KCO2 060246Z 01007KT 10/04 A3028 RMK A01 T01000038  RH  065%=      5-min Rain = 0
KCO2 060247Z 01007KT 10/04 A3028 RMK A01 T01000038  RH  066%=      5-min Rain = 0
KCO2 060248Z 01007KT 10/04 A3028 RMK A01 T00990038  RH  066%=      5-min Rain = 0
KCO2 060249Z 01007KT 10/04 A3028 RMK A01 T00990038  RH  066%=      5-min Rain = 0
KCO2 060250Z 01006KT 10/04 A3029 RMK A01 T00990038  RH  066%=      5-min Rain = 0
KCO2 060251Z 01006KT 10/04 A3029 RMK A01 T00970038  RH  066%=      5-min Rain = 0
KCO2 060252Z 01007KT 10/04 A3029 RMK A01 T00970038  RH  067%=      5-min Rain = 0
KCO2 060253Z 01006KT 10/04 A3029 RMK A01 T00970038  RH  067%=      5-min Rain = 0
KCO2 060254Z 01007KT 10/04 A3029 RMK A01 T00960038  RH  067%=      5-min Rain = 0
KCO2 060255Z 01006KT 10/04 A3029 RMK A01 T00950037  RH  067%=      5-min Rain = 0
KCO2 060256Z 01006KT 10/04 A3029 RMK A01 T00950037  RH  067%=      5-min Rain = 0
KCO2 060257Z 01006KT 09/04 A3029 RMK A01 T00940037  RH  068%=      5-min Rain = 0
KCO2 060258Z 01006KT 09/04 A3029 RMK A01 T00940037  RH  068%=      5-min Rain = 0
KCO2 060259Z 01006KT 09/04 A3029 RMK A01 T00930037  RH  068%=      5-min Rain = 0
KCO2 060300Z 01006KT 09/04 A3029 RMK A01 T00930037  RH  068%=      5-min Rain = 0
KCO2 060301Z 01006KT 09/04 A3029 RMK A01 T00920036  RH  068%=      5-min Rain = 0
KCO2 060302Z 01006KT 09/04 A3029 RMK A01 T00910037  RH  069%=      5-min Rain = 0
KCO2 060303Z 01007KT 09/04 A3029 RMK A01 T00910037  RH  069%=      5-min Rain = 0
KCO2 060304Z 01006KT 09/04 A3029 RMK A01 T00910036  RH  069%=      5-min Rain = 0
KCO2 060305Z 01006KT 09/04 A3029 RMK A01 T00910036  RH  069%=      5-min Rain = 0
KCO2 060306Z 01006KT 09/04 A3029 RMK A01 T00900036  RH  069%=      5-min Rain = 0
KCO2 060307Z 01006KT 09/04 A3029 RMK A01 T00890036  RH  069%=      5-min Rain = 0
KCO2 060308Z 01006KT 09/04 A3029 RMK A01 T00880036  RH  070%=      5-min Rain = 0
KCO2 060309Z 01006KT 09/04 A3029 RMK A01 T00870035  RH  070%=      5-min Rain = 0
KCO2 060310Z 01005KT 09/04 A3029 RMK A01 T00860035  RH  070%=      5-min Rain = 0
KCO2 060311Z 01005KT 09/04 A3029 RMK A01 T00860035  RH  070%=      5-min Rain = 0
KCO2 060312Z 01005KT 09/04 A3029 RMK A01 T00860035  RH  071%=      5-min Rain = 0
KCO2 060313Z 01004KT 09/04 A3029 RMK A01 T00850035  RH  071%=      5-min Rain = 0
KCO2 060314Z 01004KT 08/03 A3029 RMK A01 T00840034  RH  071%=      5-min Rain = 0
KCO2 060315Z 01004KT 08/04 A3029 RMK A01 T00840035  RH  071%=      5-min Rain = 0
KCO2 060316Z 01004KT 08/04 A3029 RMK A01 T00840035  RH  071%=      5-min Rain = 0
KCO2 060317Z 01004KT 08/04 A3029 RMK A01 T00840035  RH  071%=      5-min Rain = 0
KCO2 060318Z 01004KT 08/03 A3029 RMK A01 T00830034  RH  071%=      5-min Rain = 0
KCO2 060319Z 01004KT 08/04 A3029 RMK A01 T00830035  RH  071%=      5-min Rain = 0
KCO2 060320Z 00004KT 08/04 A3029 RMK A01 T00830035  RH  072%=      5-min Rain = 0
KCO2 060321Z 00004KT 08/03 A303 RMK A01 T00830034  RH  072%=      5-min Rain = 0
KCO2 060322Z 00004KT 08/03 A303 RMK A01 T00820034  RH  072%=      5-min Rain = 0
KCO2 060323Z 00004KT 08/03 A303 RMK A01 T00810034  RH  072%=      5-min Rain = 0
KCO2 060324Z 01004KT 08/03 A303 RMK A01 T00810033  RH  072%=      5-min Rain = 0
KCO2 060325Z 01004KT 08/03 A303 RMK A01 T00810032  RH  071%=      5-min Rain = 0
KCO2 060326Z 01004KT 08/03 A303 RMK A01 T00800031  RH  071%=      5-min Rain = 0
KCO2 060327Z 00004KT 08/03 A303 RMK A01 T00800031  RH  071%=      5-min Rain = 0
KCO2 060328Z 00004KT 08/03 A303 RMK A01 T00790031  RH  072%=      5-min Rain = 0
KCO2 060329Z 00004KT 08/03 A303 RMK A01 T00780032  RH  072%=      5-min Rain = 0
KCO2 060330Z 00004KT 08/03 A303 RMK A01 T00770031  RH  072%=      5-min Rain = 0
KCO2 060331Z 00004KT 08/03 A303 RMK A01 T00770030  RH  072%=      5-min Rain = 0
KCO2 060332Z 00004KT 08/03 A303 RMK A01 T00760030  RH  073%=      5-min Rain = 0
KCO2 060333Z 00004KT 08/03 A303 RMK A01 T00750031  RH  073%=      5-min Rain = 0
KCO2 060334Z 00004KT 08/03 A303 RMK A01 T00760031  RH  073%=      5-min Rain = 0
KCO2 060335Z 00004KT 08/03 A303 RMK A01 T00750031  RH  074%=      5-min Rain = 0
KCO2 060336Z 00004KT 08/03 A303 RMK A01 T00750031  RH  074%=      5-min Rain = 0
KCO2 060337Z 00004KT 08/03 A303 RMK A01 T00750032  RH  074%=      5-min Rain = 0
KCO2 060338Z 36004KT 08/03 A303 RMK A01 T00750032  RH  074%=      5-min Rain = 0
KCO2 060339Z 36004KT 08/03 A303 RMK A01 T00760034  RH  075%=      5-min Rain = 0
KCO2 060340Z 36004KT 08/03 A303 RMK A01 T00770034  RH  075%=      5-min Rain = 0
KCO2 060341Z 35004KT 08/04 A303 RMK A01 T00770035  RH  074%=      5-min Rain = 0
KCO2 060342Z 35004KT 08/04 A303 RMK A01 T00780035  RH  074%=      5-min Rain = 0
KCO2 060343Z 35004KT 08/04 A303 RMK A01 T00780035  RH  074%=      5-min Rain = 0
KCO2 060344Z 35004KT 08/04 A303 RMK A01 T00780035  RH  074%=      5-min Rain = 0
KCO2 060345Z 35004KT 08/03 A303 RMK A01 T00770034  RH  074%=      5-min Rain = 0
KCO2 060346Z 34004KT 08/03 A3031 RMK A01 T00760034  RH  074%=      5-min Rain = 0
KCO2 060347Z 34004KT 08/03 A3031 RMK A01 T00760034  RH  075%=      5-min Rain = 0
KCO2 060348Z 34004KT 08/03 A3031 RMK A01 T00750033  RH  075%=      5-min Rain = 0
KCO2 060349Z 33003KT 07/03 A3031 RMK A01 T00740033  RH  075%=      5-min Rain = 0
KCO2 060350Z 33003KT 07/03 A3031 RMK A01 T00730033  RH  075%=      5-min Rain = 0
KCO2 060351Z 33003KT 07/03 A3031 RMK A01 T00720033  RH  076%=      5-min Rain = 0
KCO2 060352Z 33004KT 07/03 A3031 RMK A01 T00720033  RH  076%=      5-min Rain = 0
KCO2 060353Z 33004KT 07/03 A3031 RMK A01 T00720033  RH  076%=      5-min Rain = 0
KCO2 060354Z 33004KT 07/03 A3031 RMK A01 T00710032  RH  076%=      5-min Rain = 0
KCO2 060355Z 34004KT 07/03 A3031 RMK A01 T00700031  RH  076%=      5-min Rain = 0
KCO2 060356Z 34005KT 07/03 A3031 RMK A01 T00690031  RH  077%=      5-min Rain = 0
KCO2 060357Z 35005KT 07/03 A3031 RMK A01 T00680032  RH  078%=      5-min Rain = 0
KCO2 060358Z 35006KT 07/03 A3031 RMK A01 T00680032  RH  078%=      5-min Rain = 0
KCO2 060359Z 35006KT 07/03 A3031 RMK A01 T00670031  RH  078%=      5-min Rain = 0
KCO2 060400Z 35006KT 07/03 A3031 RMK A01 T00660030  RH  078%=      5-min Rain = 0
KCO2 060401Z 35007KT 07/03 A3031 RMK A01 T00650030  RH  078%=      5-min Rain = 0
KCO2 060402Z 35007KT 06/03 A3031 RMK A01 T00640030  RH  079%=      5-min Rain = 0
KCO2 060403Z 35007KT 06/03 A3031 RMK A01 T00630029  RH  079%=      5-min Rain = 0
KCO2 060404Z 35007KT 06/03 A3031 RMK A01 T00620028  RH  079%=      5-min Rain = 0
KCO2 060405Z 35007KT 06/03 A3031 RMK A01 T00610028  RH  079%=      5-min Rain = 0
KCO2 060406Z 35006KT 06/03 A3031 RMK A01 T00600027  RH  079%=      5-min Rain = 0
KCO2 060407Z 35006KT 06/03 A3031 RMK A01 T00590027  RH  080%=      5-min Rain = 0
KCO2 060408Z 35007KT 06/03 A3031 RMK A01 T00580027  RH  080%=      5-min Rain = 0
KCO2 060409Z 35007KT 06/03 A3031 RMK A01 T00580027  RH  081%=      5-min Rain = 0
KCO2 060410Z 35007KT 06/03 A3031 RMK A01 T00570026  RH  081%=      5-min Rain = 0
KCO2 060411Z 35007KT 06/03 A3031 RMK A01 T00560027  RH  081%=      5-min Rain = 0
KCO2 060412Z 35007KT 06/03 A3031 RMK A01 T00550026  RH  082%=      5-min Rain = 0
KCO2 060413Z 35007KT 06/03 A3031 RMK A01 T00550026  RH  082%=      5-min Rain = 0
KCO2 060414Z 35007KT 05/03 A3031 RMK A01 T00540026  RH  082%=      5-min Rain = 0
KCO2 060415Z 35007KT 05/03 A3031 RMK A01 T00540026  RH  082%=      5-min Rain = 0
KCO2 060416Z 35006KT 05/03 A3031 RMK A01 T00530026  RH  083%=      5-min Rain = 0
KCO2 060417Z 35006KT 05/03 A3031 RMK A01 T00530026  RH  083%=      5-min Rain = 0
KCO2 060418Z 35006KT 05/03 A3031 RMK A01 T00540027  RH  083%=      5-min Rain = 0
KCO2 060419Z 35006KT 05/03 A3031 RMK A01 T00530026  RH  083%=      5-min Rain = 0
KCO2 060420Z 35007KT 05/03 A3031 RMK A01 T00530026  RH  083%=      5-min Rain = 0
KCO2 060421Z 35007KT 05/03 A3031 RMK A01 T00530026  RH  083%=      5-min Rain = 0
KCO2 060422Z 35006KT 05/03 A3031 RMK A01 T00520025  RH  082%=      5-min Rain = 0
KCO2 060423Z 34006KT 05/02 A3031 RMK A01 T00520024  RH  083%=      5-min Rain = 0
KCO2 060424Z 34006KT 05/02 A3031 RMK A01 T00510024  RH  083%=      5-min Rain = 0
KCO2 060425Z 34006KT 05/03 A3031 RMK A01 T00510025  RH  083%=      5-min Rain = 0
KCO2 060426Z 34006KT 05/03 A3031 RMK A01 T00510026  RH  083%=      5-min Rain = 0
KCO2 060427Z 34006KT 05/03 A3031 RMK A01 T00510026  RH  083%=      5-min Rain = 0
KCO2 060428Z 34006KT 05/03 A3031 RMK A01 T00520026  RH  084%=      5-min Rain = 0
KCO2 060429Z 34006KT 05/03 A3031 RMK A01 T00520027  RH  084%=      5-min Rain = 0
KCO2 060430Z 34006KT 05/03 A3031 RMK A01 T00530027  RH  083%=      5-min Rain = 0
KCO2 060431Z 34006KT 05/03 A3031 RMK A01 T00530027  RH  083%=      5-min Rain = 0
KCO2 060432Z 34006KT 05/03 A3031 RMK A01 T00540027  RH  083%=      5-min Rain = 0
KCO2 060433Z 34006KT 05/03 A3031 RMK A01 T00540027  RH  083%=      5-min Rain = 0
KCO2 060434Z 34006KT 05/03 A3031 RMK A01 T00540027  RH  083%=      5-min Rain = 0
KCO2 060435Z 34006KT 06/03 A3031 RMK A01 T00550027  RH  083%=      5-min Rain = 0
KCO2 060436Z 34006KT 05/03 A3031 RMK A01 T00540027  RH  082%=      5-min Rain = 0
KCO2 060437Z 34006KT 05/03 A3031 RMK A01 T00540027  RH  082%=      5-min Rain = 0
KCO2 060438Z 34006KT 05/03 A3031 RMK A01 T00540026  RH  082%=      5-min Rain = 0
KCO2 060439Z 34006KT 05/03 A3031 RMK A01 T00530025  RH  082%=      5-min Rain = 0
KCO2 060440Z 34006KT 05/03 A3031 RMK A01 T00520025  RH  082%=      5-min Rain = 0
KCO2 060441Z 34006KT 05/03 A3031 RMK A01 T00520025  RH  083%=      5-min Rain = 0
KCO2 060442Z 34006KT 05/03 A3031 RMK A01 T00520025  RH  083%=      5-min Rain = 0
KCO2 060443Z 34006KT 05/03 A3031 RMK A01 T00510025  RH  083%=      5-min Rain = 0
KCO2 060444Z 34005KT 05/03 A3031 RMK A01 T00510025  RH  083%=      5-min Rain = 0
KCO2 060445Z 34005KT 05/03 A3031 RMK A01 T00510026  RH  084%=      5-min Rain = 0
KCO2 060446Z 34005KT 05/03 A3031 RMK A01 T00520027  RH  084%=      5-min Rain = 0
KCO2 060447Z 34006KT 05/03 A3031 RMK A01 T00520026  RH  083%=      5-min Rain = 0
KCO2 060448Z 34006KT 05/03 A3031 RMK A01 T00530027  RH  083%=      5-min Rain = 0
KCO2 060449Z 34006KT 05/03 A3031 RMK A01 T00530026  RH  083%=      5-min Rain = 0
KCO2 060450Z 34006KT 05/03 A3031 RMK A01 T00530027  RH  083%=      5-min Rain = 0
KCO2 060451Z 34006KT 05/03 A3031 RMK A01 T00530026  RH  083%=      5-min Rain = 0
KCO2 060452Z 33005KT 05/03 A3031 RMK A01 T00530026  RH  083%=      5-min Rain = 0
KCO2 060453Z 33005KT 05/03 A3031 RMK A01 T00530026  RH  083%=      5-min Rain = 0
KCO2 060454Z 34005KT 05/03 A3031 RMK A01 T00540026  RH  083%=      5-min Rain = 0
KCO2 060455Z 34005KT 05/03 A3031 RMK A01 T00530026  RH  083%=      5-min Rain = 0
KCO2 060456Z 34005KT 05/03 A3031 RMK A01 T00540027  RH  083%=      5-min Rain = 0
KCO2 060457Z 34005KT 05/03 A3031 RMK A01 T00540027  RH  083%=      5-min Rain = 0
KCO2 060458Z 35005KT 05/03 A3031 RMK A01 T00540027  RH  083%=      5-min Rain = 0
KCO2 060459Z 35006KT 05/03 A3031 RMK A01 T00540026  RH  082%=      5-min Rain = 0
KCO2 060500Z 35006KT 05/03 A3031 RMK A01 T00520025  RH  082%=      5-min Rain = 0
KCO2 060501Z 35006KT 05/02 A3031 RMK A01 T00510024  RH  083%=      5-min Rain = 0
KCO2 060502Z 35006KT 05/02 A3031 RMK A01 T00510024  RH  083%=      5-min Rain = 0
KCO2 060503Z 35006KT 05/03 A3031 RMK A01 T00510025  RH  084%=      5-min Rain = 0
KCO2 060504Z 36006KT 05/03 A3031 RMK A01 T00510025  RH  084%=      5-min Rain = 0
KCO2 060505Z 00006KT 05/03 A3031 RMK A01 T00510025  RH  083%=      5-min Rain = 0
KCO2 060506Z 00006KT 05/03 A3031 RMK A01 T00500025  RH  084%=      5-min Rain = 0
KCO2 060507Z 00005KT 05/02 A3031 RMK A01 T00500024  RH  084%=      5-min Rain = 0
KCO2 060508Z 00005KT 05/02 A3031 RMK A01 T00490024  RH  084%=      5-min Rain = 0
KCO2 060509Z 00005KT 05/02 A3031 RMK A01 T00490024  RH  084%=      5-min Rain = 0
KCO2 060510Z 00005KT 05/02 A3031 RMK A01 T00480024  RH  085%=      5-min Rain = 0
KCO2 060511Z 00005KT 05/02 A3031 RMK A01 T00470024  RH  085%=      5-min Rain = 0
KCO2 060512Z 36006KT 05/02 A3031 RMK A01 T00470024  RH  085%=      5-min Rain = 0
KCO2 060513Z 35006KT 05/02 A3032 RMK A01 T00460023  RH  085%=      5-min Rain = 0
KCO2 060514Z 35006KT 05/02 A3032 RMK A01 T00460023  RH  085%=      5-min Rain = 0
KCO2 060515Z 35006KT 05/02 A3032 RMK A01 T00450022  RH  086%=      5-min Rain = 0
KCO2 060516Z 35006KT 04/02 A3032 RMK A01 T00440022  RH  086%=      5-min Rain = 0
KCO2 060517Z 35006KT 04/02 A3032 RMK A01 T00430021  RH  086%=      5-min Rain = 0
KCO2 060518Z 36006KT 04/02 A3032 RMK A01 T00430022  RH  086%=      5-min Rain = 0
KCO2 060519Z 36006KT 04/02 A3032 RMK A01 T00430022  RH  086%=      5-min Rain = 0
KCO2 060520Z 00007KT 04/02 A3031 RMK A01 T00430023  RH  087%=      5-min Rain = 0
KCO2 060521Z 00007KT 04/02 A3031 RMK A01 T00440024  RH  087%=      5-min Rain = 0
KCO2 060522Z 00007KT 05/03 A3031 RMK A01 T00450025  RH  087%=      5-min Rain = 0
KCO2 060523Z 00007KT 05/03 A3031 RMK A01 T00460025  RH  086%=      5-min Rain = 0
KCO2 060524Z 00007KT 05/03 A3031 RMK A01 T00470025  RH  086%=      5-min Rain = 0
KCO2 060525Z 00007KT 05/02 A3031 RMK A01 T00470024  RH  085%=      5-min Rain = 0
KCO2 060526Z 00007KT 05/02 A3031 RMK A01 T00470024  RH  085%=      5-min Rain = 0
KCO2 060527Z 00007KT 05/02 A3031 RMK A01 T00460024  RH  085%=      5-min Rain = 0
KCO2 060528Z 00007KT 05/02 A3031 RMK A01 T00470024  RH  085%=      5-min Rain = 0
KCO2 060529Z 00007KT 05/02 A3031 RMK A01 T00470024  RH  085%=      5-min Rain = 0
KCO2 060530Z 00007KT 05/02 A3031 RMK A01 T00470024  RH  086%=      5-min Rain = 0
KCO2 060531Z 00007KT 05/02 A3031 RMK A01 T00460023  RH  085%=      5-min Rain = 0
KCO2 060532Z 00007KT 05/02 A3031 RMK A01 T00450022  RH  085%=      5-min Rain = 0
KCO2 060533Z 00007KT 04/02 A3031 RMK A01 T00440022  RH  086%=      5-min Rain = 0
KCO2 060534Z 00007KT 04/02 A3031 RMK A01 T00430022  RH  086%=      5-min Rain = 0
KCO2 060535Z 00008KT 04/02 A3031 RMK A01 T00420021  RH  086%=      5-min Rain = 0
KCO2 060536Z 00007KT 04/02 A3031 RMK A01 T00420021  RH  086%=      5-min Rain = 0
KCO2 060537Z 00008KT 04/02 A3031 RMK A01 T00420022  RH  087%=      5-min Rain = 0
KCO2 060538Z 00008KT 04/02 A3031 RMK A01 T00420022  RH  087%=      5-min Rain = 0
KCO2 060539Z 00008KT 04/02 A3031 RMK A01 T00420023  RH  087%=      5-min Rain = 0
KCO2 060540Z 00008KT 04/02 A3031 RMK A01 T00430023  RH  087%=      5-min Rain = 0
KCO2 060541Z 00008KT 04/02 A3031 RMK A01 T00440024  RH  087%=      5-min Rain = 0
KCO2 060542Z 00008KT 04/02 A3031 RMK A01 T00440024  RH  087%=      5-min Rain = 0
KCO2 060543Z 00008KT 04/02 A3031 RMK A01 T00440023  RH  086%=      5-min Rain = 0
KCO2 060544Z 00008KT 05/02 A3031 RMK A01 T00450024  RH  086%=      5-min Rain = 0
KCO2 060545Z 00008KT 04/02 A3031 RMK A01 T00440023  RH  086%=      5-min Rain = 0
KCO2 060546Z 00008KT 04/02 A3031 RMK A01 T00440023  RH  086%=      5-min Rain = 0
KCO2 060547Z 00007KT 04/02 A3031 RMK A01 T00440023  RH  086%=      5-min Rain = 0
KCO2 060548Z 36007KT 04/02 A3031 RMK A01 T00430022  RH  086%=      5-min Rain = 0
KCO2 060549Z 36007KT 04/02 A3031 RMK A01 T00430022  RH  086%=      5-min Rain = 0
KCO2 060550Z 36007KT 04/02 A3031 RMK A01 T00420021  RH  086%=      5-min Rain = 0
KCO2 060551Z 36007KT 04/02 A3031 RMK A01 T00400020  RH  087%=      5-min Rain = 0
KCO2 060552Z 00007KT 04/02 A3031 RMK A01 T00400020  RH  087%=      5-min Rain = 0
KCO2 060553Z 00008KT 04/02 A3031 RMK A01 T00390020  RH  088%=      5-min Rain = 0
KCO2 060554Z 00008KT 04/02 A3031 RMK A01 T00390021  RH  088%=      5-min Rain = 0
KCO2 060555Z 00008KT 04/02 A3031 RMK A01 T00390021  RH  088%=      5-min Rain = 0
KCO2 060556Z 00008KT 04/02 A3031 RMK A01 T00390021  RH  088%=      5-min Rain = 0
KCO2 060557Z 00008KT 04/02 A3031 RMK A01 T00390021  RH  088%=      5-min Rain = 0
KCO2 060558Z 00008KT 04/02 A3031 RMK A01 T00400023  RH  089%=      5-min Rain = 0
KCO2 060559Z 00007KT 04/02 A3031 RMK A01 T00400023  RH  089%=      5-min Rain = 0

Page generated in 0.311 seconds.